Time,TemperatureF,DewpointF,PressureIn,WindDirection,WindDirectionDegrees,WindSpeedMPH,WindSpeedGustMPH,Humidity,HourlyPrecipIn,Conditions,Clouds,dailyrainin,SolarRadiationWatts/m^2,SoftwareType,DateUTC
2013-04-02 00:00:00,54.7,50.3,29.62,ENE,74,0.0,0.0,85,0.00,RA,,0.00,0.0,WeatherDisplay:10.37,2013-04-01 22:00:00,
2013-04-02 00:02:00,54.7,50.3,29.61,ENE,74,0.0,0.0,85,0.00,RA,,0.00,0.0,WeatherDisplay:10.37,2013-04-01 22:02:00,
2013-04-02 00:03:00,54.7,50.3,29.61,ENE,74,2.3,2.3,85,0.00,RA,,0.00,0.0,WeatherDisplay:10.37,2013-04-01 22:03:00,
2013-04-02 00:04:00,54.7,50.3,29.61,ENE,74,3.5,3.5,85,0.00,RA,,0.00,0.0,WeatherDisplay:10.37,2013-04-01 22:04:00,
2013-04-02 00:05:00,54.7,50.3,29.61,ENE,74,3.5,3.5,85,0.00,RA,,0.00,0.0,WeatherDisplay:10.37,2013-04-01 22:05:00,
2013-04-02 00:07:00,54.7,50.3,29.61,ENE,74,3.5,3.5,85,0.01,RA,,0.02,0.0,WeatherDisplay:10.37,2013-04-01 22:07:00,
2013-04-02 00:08:00,54.7,50.3,29.61,ENE,74,3.5,3.5,85,0.02,RA,,0.03,0.0,WeatherDisplay:10.37,2013-04-01 22:08:00,
2013-04-02 00:09:00,54.8,50.4,29.60,ENE,74,3.5,3.5,85,0.04,RA,,0.04,0.0,WeatherDisplay:10.37,2013-04-01 22:09:00,
2013-04-02 00:10:00,54.8,50.4,29.60,ENE,74,2.3,2.3,85,0.04,RA,,0.04,0.0,WeatherDisplay:10.37,2013-04-01 22:10:00,
2013-04-02 00:12:00,54.8,50.4,29.60,ENE,74,3.5,3.5,85,0.04,RA,,0.04,0.0,WeatherDisplay:10.37,2013-04-01 22:12:00,
2013-04-02 00:13:00,54.8,50.4,29.60,ENE,74,3.5,3.5,85,0.04,RA,,0.04,0.0,WeatherDisplay:10.37,2013-04-01 22:13:00,
2013-04-02 00:14:00,54.8,50.4,29.60,ENE,74,1.0,0.0,85,0.04,RA,,0.04,0.0,WeatherDisplay:10.37,2013-04-01 22:14:00,
2013-04-02 00:15:00,54.8,50.4,29.61,ENE,74,2.3,2.3,85,0.04,RA,,0.04,0.0,WeatherDisplay:10.37,2013-04-01 22:15:00,
2013-04-02 00:18:00,54.8,50.7,29.60,ENE,74,2.0,2.0,86,0.04,RA,,0.04,0.0,WeatherDisplay:10.37,2013-04-01 22:18:00,
2013-04-02 00:19:00,54.8,50.7,29.61,ENE,74,3.5,3.5,86,0.04,RA,,0.04,0.0,WeatherDisplay:10.37,2013-04-01 22:19:00,
2013-04-02 00:20:00,54.8,50.7,29.60,ENE,74,3.5,3.5,86,0.04,,,0.04,0.0,WeatherDisplay:10.37,2013-04-01 22:20:00,
2013-04-02 00:23:00,54.8,50.7,29.60,ENE,74,1.1,1.1,86,0.04,CLR,,0.04,0.0,WeatherDisplay:10.37,2013-04-01 22:23:00,
2013-04-02 00:24:00,54.8,50.7,29.60,ENE,74,2.3,2.3,86,0.04,CLR,,0.04,0.0,WeatherDisplay:10.37,2013-04-01 22:24:00,
2013-04-02 00:25:00,54.8,50.7,29.60,ENE,74,3.5,3.5,86,0.04,CLR,,0.04,0.0,WeatherDisplay:10.37,2013-04-01 22:25:00,
2013-04-02 00:28:00,54.8,50.7,29.60,ENE,74,3.5,3.5,86,0.04,CLR,,0.04,0.0,WeatherDisplay:10.37,2013-04-01 22:28:00,
2013-04-02 00:29:00,54.7,50.6,29.60,ENE,77,3.0,3.0,86,0.04,CLR,,0.04,0.0,WeatherDisplay:10.37,2013-04-01 22:29:00,
2013-04-02 00:30:00,54.7,50.6,29.60,SE,140,8.1,8.1,86,0.04,CLR,,0.04,0.0,WeatherDisplay:10.37,2013-04-01 22:30:00,
2013-04-02 00:33:00,54.7,50.6,29.59,SE,126,6.9,6.9,86,0.04,CLR,,0.04,0.0,WeatherDisplay:10.37,2013-04-01 22:33:00,
2013-04-02 00:34:00,54.7,50.6,29.59,SE,130,7.0,7.0,86,0.04,CLR,,0.04,0.0,WeatherDisplay:10.37,2013-04-01 22:34:00,
2013-04-02 00:36:00,54.7,50.6,29.59,SE,140,10.4,10.4,86,0.04,CLR,,0.04,0.0,WeatherDisplay:10.37,2013-04-01 22:36:00,
2013-04-02 00:38:00,54.7,50.6,29.59,SSE,152,8.1,8.1,86,0.04,CLR,,0.04,0.0,WeatherDisplay:10.37,2013-04-01 22:38:00,
2013-04-02 00:39:00,54.7,50.6,29.59,SSE,150,8.1,8.1,86,0.04,CLR,,0.04,0.0,WeatherDisplay:10.37,2013-04-01 22:39:00,
2013-04-02 00:40:00,54.7,50.6,29.59,SSE,153,6.9,6.9,86,0.04,CLR,,0.04,0.0,WeatherDisplay:10.37,2013-04-01 22:40:00,
2013-04-02 00:42:00,54.7,50.6,29.59,SSE,153,5.0,5.0,86,0.04,CLR,,0.04,0.0,WeatherDisplay:10.37,2013-04-01 22:42:00,
2013-04-02 00:43:00,54.8,50.7,29.59,SSE,152,5.0,5.0,86,0.04,CLR,,0.04,0.0,WeatherDisplay:10.37,2013-04-01 22:43:00,
2013-04-02 00:44:00,54.8,50.7,29.59,SSE,152,4.6,4.6,86,0.04,CLR,,0.05,0.0,WeatherDisplay:10.37,2013-04-01 22:44:00,
2013-04-02 00:45:00,54.8,50.7,29.59,SSE,152,4.6,4.6,86,0.04,CLR,,0.05,0.0,WeatherDisplay:10.37,2013-04-01 22:45:00,
2013-04-02 00:47:00,54.8,50.7,29.59,SSE,152,3.0,3.0,86,0.06,RA,,0.07,0.0,WeatherDisplay:10.37,2013-04-01 22:47:00,
2013-04-02 00:49:00,54.9,51.1,29.59,SSE,152,6.9,6.9,87,0.07,RA,,0.07,0.0,WeatherDisplay:10.37,2013-04-01 22:49:00,
2013-04-02 00:50:00,54.9,51.1,29.59,SSE,152,5.0,5.0,87,0.07,RA,,0.07,0.0,WeatherDisplay:10.37,2013-04-01 22:50:00,
2013-04-02 00:52:00,54.9,51.1,29.59,SSE,150,7.0,7.0,87,0.07,RA,,0.07,0.0,WeatherDisplay:10.37,2013-04-01 22:52:00,
2013-04-02 00:54:00,54.9,51.1,29.59,SSE,162,6.9,6.9,87,0.07,RA,,0.07,0.0,WeatherDisplay:10.37,2013-04-01 22:54:00,
2013-04-02 00:55:00,54.9,51.1,29.59,SSE,168,6.9,6.9,87,0.07,RA,,0.07,0.0,WeatherDisplay:10.37,2013-04-01 22:55:00,
2013-04-02 00:57:00,54.9,51.1,29.59,SSE,164,6.9,6.9,87,0.08,RA,,0.08,0.0,WeatherDisplay:10.37,2013-04-01 22:57:00,
2013-04-02 00:59:00,55.0,51.2,29.59,SSE,161,6.9,6.9,87,0.08,RA,,0.10,0.0,WeatherDisplay:10.37,2013-04-01 22:59:00,
2013-04-02 01:00:00,55.0,51.2,29.59,SSE,160,6.0,6.0,87,0.10,RA,,0.11,0.0,WeatherDisplay:10.37,2013-04-01 23:00:00,
2013-04-02 01:03:00,55.0,51.2,29.59,SE,144,10.0,10.0,87,0.11,RA,,0.11,0.0,WeatherDisplay:10.37,2013-04-01 23:03:00,
2013-04-02 01:04:00,55.0,51.2,29.59,SSE,161,10.4,10.4,87,0.11,RA,,0.11,0.0,WeatherDisplay:10.37,2013-04-01 23:04:00,
2013-04-02 01:05:00,55.0,51.2,29.59,SSE,159,5.8,5.8,87,0.11,RA,,0.11,0.0,WeatherDisplay:10.37,2013-04-01 23:05:00,
2013-04-02 01:06:00,55.0,51.2,29.59,SSE,162,4.6,4.6,87,0.11,RA,,0.11,0.0,WeatherDisplay:10.37,2013-04-01 23:06:00,
2013-04-02 01:08:00,55.1,51.3,29.59,SSE,158,7.0,7.0,87,0.09,RA,,0.11,0.0,WeatherDisplay:10.37,2013-04-01 23:08:00,
2013-04-02 01:09:00,55.1,51.3,29.59,SSE,160,8.1,8.1,87,0.08,RA,,0.11,0.0,WeatherDisplay:10.37,2013-04-01 23:09:00,
2013-04-02 01:10:00,55.1,51.3,29.58,South,170,6.9,6.9,87,0.07,,,0.11,0.0,WeatherDisplay:10.37,2013-04-01 23:10:00,
2013-04-02 01:11:00,55.2,51.4,29.58,SSE,167,6.9,6.9,87,0.07,,,0.11,0.0,WeatherDisplay:10.37,2013-04-01 23:11:00,
2013-04-02 01:13:00,55.2,51.7,29.58,South,170,9.2,9.2,88,0.07,CLR,,0.11,0.0,WeatherDisplay:10.37,2013-04-01 23:13:00,
2013-04-02 01:14:00,55.3,51.8,29.58,South,169,6.9,6.9,88,0.07,CLR,,0.11,0.0,WeatherDisplay:10.37,2013-04-01 23:14:00,
2013-04-02 01:15:00,55.3,51.8,29.58,SSE,164,6.9,6.9,88,0.07,CLR,,0.11,0.0,WeatherDisplay:10.37,2013-04-01 23:15:00,
2013-04-02 01:16:00,55.3,51.8,29.58,SSE,164,6.9,6.9,88,0.07,CLR,,0.11,0.0,WeatherDisplay:10.37,2013-04-01 23:16:00,
2013-04-02 01:18:00,55.4,51.9,29.58,SSE,157,6.9,6.9,88,0.07,CLR,,0.11,0.0,WeatherDisplay:10.37,2013-04-01 23:18:00,
2013-04-02 01:19:00,55.4,51.9,29.58,SE,143,6.9,6.9,88,0.07,CLR,,0.11,0.0,WeatherDisplay:10.37,2013-04-01 23:19:00,
2013-04-02 01:20:00,55.5,52.0,29.58,South,175,11.5,11.5,88,0.07,CLR,,0.11,0.0,WeatherDisplay:10.37,2013-04-01 23:20:00,
2013-04-02 01:21:00,55.5,52.0,29.58,South,185,11.5,11.5,88,0.07,CLR,,0.11,0.0,WeatherDisplay:10.37,2013-04-01 23:21:00,
2013-04-02 01:23:00,55.6,52.1,29.58,SE,136,11.5,11.5,88,0.08,RA,,0.12,0.0,WeatherDisplay:10.37,2013-04-01 23:23:00,
2013-04-02 01:24:00,55.6,52.1,29.58,SSE,156,11.5,11.5,88,0.08,RA,,0.12,0.0,WeatherDisplay:10.37,2013-04-01 23:24:00,
2013-04-02 01:25:00,55.7,52.2,29.58,SSE,159,11.5,11.5,88,0.08,RA,,0.12,0.0,WeatherDisplay:10.37,2013-04-01 23:25:00,
2013-04-02 01:26:00,55.8,52.6,29.58,SSE,150,9.2,9.2,89,0.08,RA,,0.12,0.0,WeatherDisplay:10.37,2013-04-01 23:26:00,
2013-04-02 01:28:00,55.8,52.6,29.58,SSW,199,4.6,4.6,89,0.08,RA,,0.12,0.0,WeatherDisplay:10.37,2013-04-01 23:28:00,
2013-04-02 01:29:00,55.8,52.6,29.58,SSE,164,4.6,5.5,89,0.08,RA,,0.12,0.0,WeatherDisplay:10.37,2013-04-01 23:29:00,
2013-04-02 01:30:00,55.8,52.6,29.58,SSE,166,5.0,5.0,89,0.08,RA,,0.12,0.0,WeatherDisplay:10.37,2013-04-01 23:30:00,
2013-04-02 01:32:00,55.9,52.7,29.58,SSE,161,5.0,5.9,89,0.08,RA,,0.13,0.0,WeatherDisplay:10.37,2013-04-01 23:32:00,
2013-04-02 01:33:00,55.9,52.7,29.58,SSE,152,10.4,10.4,89,0.11,RA,,0.15,0.0,WeatherDisplay:10.37,2013-04-01 23:33:00,
2013-04-02 01:34:00,55.9,52.7,29.58,SSE,165,10.4,10.4,89,0.11,RA,,0.15,0.0,WeatherDisplay:10.37,2013-04-01 23:34:00,
2013-04-02 01:36:00,55.9,52.7,29.58,SSE,165,3.5,3.5,89,0.12,RA,,0.16,0.0,WeatherDisplay:10.37,2013-04-01 23:36:00,
2013-04-02 01:37:00,55.9,52.7,29.58,South,181,4.6,4.6,89,0.12,RA,,0.16,0.0,WeatherDisplay:10.37,2013-04-01 23:37:00,
2013-04-02 01:39:00,56.0,52.8,29.58,SSE,166,9.0,9.0,89,0.12,RA,,0.16,0.0,WeatherDisplay:10.37,2013-04-01 23:39:00,
2013-04-02 01:41:00,56.0,52.8,29.57,SSE,162,11.5,11.5,89,0.12,RA,,0.16,0.0,WeatherDisplay:10.37,2013-04-01 23:41:00,
2013-04-02 01:42:00,56.0,52.8,29.57,South,173,11.5,11.5,89,0.12,RA,,0.16,0.0,WeatherDisplay:10.37,2013-04-01 23:42:00,
2013-04-02 01:44:00,56.0,52.8,29.57,South,173,4.0,4.0,89,0.12,RA,,0.16,0.0,WeatherDisplay:10.37,2013-04-01 23:44:00,
2013-04-02 01:46:00,56.0,52.8,29.57,SSE,153,6.9,6.9,89,0.11,,,0.16,0.0,WeatherDisplay:10.37,2013-04-01 23:46:00,
2013-04-02 01:48:00,55.9,52.7,29.57,SSE,164,4.0,4.0,89,0.10,RA,,0.17,0.0,WeatherDisplay:10.37,2013-04-01 23:48:00,
2013-04-02 01:49:00,55.9,52.7,29.57,South,171,6.0,6.0,89,0.10,RA,,0.17,0.0,WeatherDisplay:10.37,2013-04-01 23:49:00,
2013-04-02 01:50:00,55.9,52.7,29.57,SSE,166,6.9,6.9,89,0.11,RA,,0.18,0.0,WeatherDisplay:10.37,2013-04-01 23:50:00,
2013-04-02 01:51:00,55.9,52.7,29.57,South,173,6.9,6.9,89,0.11,RA,,0.18,0.0,WeatherDisplay:10.37,2013-04-01 23:51:00,
2013-04-02 01:53:00,55.9,52.7,29.57,South,171,9.2,9.2,89,0.11,RA,,0.18,0.0,WeatherDisplay:10.37,2013-04-01 23:53:00,
2013-04-02 01:54:00,55.9,52.7,29.57,South,177,6.9,6.9,89,0.11,RA,,0.18,0.0,WeatherDisplay:10.37,2013-04-01 23:54:00,
2013-04-02 01:55:00,55.9,52.7,29.57,South,177,8.0,8.0,89,0.11,RA,,0.18,0.0,WeatherDisplay:10.37,2013-04-01 23:55:00,
2013-04-02 01:57:00,56.0,52.8,29.58,SSW,201,6.9,6.9,89,0.10,RA,,0.18,0.0,WeatherDisplay:10.37,2013-04-01 23:57:00,
2013-04-02 01:58:00,56.0,53.1,29.58,South,182,11.0,11.0,90,0.10,RA,,0.18,0.0,WeatherDisplay:10.37,2013-04-01 23:58:00,
2013-04-02 01:59:00,56.1,53.2,29.57,SSW,198,11.5,11.5,90,0.10,RA,,0.18,0.0,WeatherDisplay:10.37,2013-04-01 23:59:00,
2013-04-02 02:00:00,56.1,53.2,29.58,SSE,166,9.2,9.2,90,0.08,,,0.18,0.0,WeatherDisplay:10.37,2013-04-02 00:00:00,
2013-04-02 02:02:00,56.2,53.3,29.58,SSW,206,8.1,8.1,90,0.07,CLR,,0.18,0.0,WeatherDisplay:10.37,2013-04-02 00:02:00,
2013-04-02 02:03:00,56.2,53.3,29.58,SSW,195,8.1,8.1,90,0.07,CLR,,0.18,0.0,WeatherDisplay:10.37,2013-04-02 00:03:00,
2013-04-02 02:04:00,56.2,53.3,29.57,SSW,202,8.1,8.1,90,0.07,CLR,,0.18,0.0,WeatherDisplay:10.37,2013-04-02 00:04:00,
2013-04-02 02:05:00,56.3,53.4,29.57,SSW,196,10.4,10.4,90,0.07,CLR,,0.18,0.0,WeatherDisplay:10.37,2013-04-02 00:05:00,
2013-04-02 02:08:00,56.3,53.4,29.58,South,180,11.5,11.5,90,0.07,CLR,,0.18,0.0,WeatherDisplay:10.37,2013-04-02 00:08:00,
2013-04-02 02:09:00,56.4,53.5,29.58,SSW,207,11.5,11.5,90,0.07,CLR,,0.18,0.0,WeatherDisplay:10.37,2013-04-02 00:09:00,
2013-04-02 02:10:00,56.5,53.6,29.58,SSW,207,11.5,11.5,90,0.07,CLR,,0.18,0.0,WeatherDisplay:10.37,2013-04-02 00:10:00,
2013-04-02 02:13:00,56.5,53.6,29.57,SSW,208,10.4,10.4,90,0.08,RA,,0.19,0.0,WeatherDisplay:10.37,2013-04-02 00:13:00,
2013-04-02 02:14:00,56.6,53.7,29.57,SW,219,9.2,9.2,90,0.08,RA,,0.19,0.0,WeatherDisplay:10.37,2013-04-02 00:14:00,
2013-04-02 02:15:00,56.6,53.7,29.57,SSW,194,10.4,10.4,90,0.08,RA,,0.19,0.0,WeatherDisplay:10.37,2013-04-02 00:15:00,
2013-04-02 02:18:00,56.6,53.7,29.57,SSW,206,9.2,9.2,90,0.08,RA,,0.19,0.0,WeatherDisplay:10.37,2013-04-02 00:18:00,
2013-04-02 02:19:00,56.6,53.7,29.57,SSW,194,9.2,9.2,90,0.08,RA,,0.19,0.0,WeatherDisplay:10.37,2013-04-02 00:19:00,
2013-04-02 02:20:00,56.7,53.8,29.57,SW,215,12.7,12.7,90,0.08,RA,,0.19,0.0,WeatherDisplay:10.37,2013-04-02 00:20:00,
2013-04-02 02:23:00,56.7,53.8,29.57,SSW,199,9.2,9.2,90,0.07,,,0.19,0.0,WeatherDisplay:10.37,2013-04-02 00:23:00,
2013-04-02 02:24:00,56.7,53.8,29.57,SSW,202,9.2,9.2,90,0.07,CLR,,0.19,0.0,WeatherDisplay:10.37,2013-04-02 00:24:00,
2013-04-02 02:25:00,56.7,53.8,29.58,SSW,207,10.4,10.4,90,0.07,CLR,,0.19,0.0,WeatherDisplay:10.37,2013-04-02 00:25:00,
2013-04-02 02:28:00,56.8,53.9,29.58,SSW,205,12.7,12.7,90,0.07,CLR,,0.19,0.0,WeatherDisplay:10.37,2013-04-02 00:28:00,
2013-04-02 02:29:00,56.8,53.9,29.58,SSW,198,17.3,17.3,90,0.07,CLR,,0.19,0.0,WeatherDisplay:10.37,2013-04-02 00:29:00,
2013-04-02 02:30:00,56.8,53.9,29.57,SSW,200,16.1,16.1,90,0.07,CLR,,0.19,0.0,WeatherDisplay:10.37,2013-04-02 00:30:00,
2013-04-02 02:31:00,56.8,53.9,29.57,South,190,15.0,15.0,90,0.07,CLR,,0.19,0.0,WeatherDisplay:10.37,2013-04-02 00:31:00,
2013-04-02 02:33:00,56.9,54.0,29.58,SSW,204,13.8,13.8,90,0.05,CLR,,0.19,0.0,WeatherDisplay:10.37,2013-04-02 00:33:00,
2013-04-02 02:35:00,57.0,54.1,29.57,SSW,202,13.8,13.8,90,0.04,CLR,,0.19,0.0,WeatherDisplay:10.37,2013-04-02 00:35:00,
2013-04-02 02:37:00,57.0,54.1,29.57,SSW,207,11.5,11.5,90,0.03,CLR,,0.19,0.0,WeatherDisplay:10.37,2013-04-02 00:37:00,
2013-04-02 02:38:00,57.0,54.1,29.57,SSW,203,12.0,12.0,90,0.03,CLR,,0.19,0.0,WeatherDisplay:10.37,2013-04-02 00:38:00,
2013-04-02 02:40:00,57.0,54.1,29.57,SW,227,17.3,17.3,90,0.03,CLR,,0.19,0.0,WeatherDisplay:10.37,2013-04-02 00:40:00,
2013-04-02 02:42:00,57.1,54.2,29.57,South,184,11.5,11.5,90,0.04,RA,,0.20,0.0,WeatherDisplay:10.37,2013-04-02 00:42:00,
2013-04-02 02:43:00,57.1,54.2,29.57,SSW,202,14.0,14.0,90,0.04,RA,,0.20,0.0,WeatherDisplay:10.37,2013-04-02 00:43:00,
2013-04-02 02:45:00,57.1,54.2,29.57,SSW,200,10.4,10.4,90,0.04,RA,,0.20,0.0,WeatherDisplay:10.37,2013-04-02 00:45:00,
2013-04-02 02:47:00,57.1,54.2,29.57,SSW,205,12.7,12.7,90,0.04,RA,,0.20,0.0,WeatherDisplay:10.37,2013-04-02 00:47:00,
2013-04-02 02:48:00,57.1,54.2,29.57,SSE,167,12.7,12.7,90,0.03,RA,,0.20,0.0,WeatherDisplay:10.37,2013-04-02 00:48:00,
2013-04-02 02:50:00,57.1,54.2,29.57,SSW,202,11.5,11.5,90,0.02,RA,,0.20,0.0,WeatherDisplay:10.37,2013-04-02 00:50:00,
2013-04-02 02:52:00,57.2,54.3,29.57,South,179,10.0,10.0,90,0.02,,,0.20,0.0,WeatherDisplay:10.37,2013-04-02 00:52:00,
2013-04-02 02:53:00,57.2,54.3,29.57,South,187,11.5,11.5,90,0.02,CLR,,0.20,0.0,WeatherDisplay:10.37,2013-04-02 00:53:00,
2013-04-02 02:55:00,57.2,54.3,29.57,SSW,202,11.5,11.5,90,0.02,CLR,,0.20,0.0,WeatherDisplay:10.37,2013-04-02 00:55:00,
2013-04-02 02:57:00,57.2,54.3,29.57,SSW,204,8.1,8.1,90,0.02,CLR,,0.20,0.0,WeatherDisplay:10.37,2013-04-02 00:57:00,
2013-04-02 02:58:00,57.2,54.3,29.57,South,191,11.5,11.5,90,0.02,CLR,,0.20,0.0,WeatherDisplay:10.37,2013-04-02 00:58:00,
2013-04-02 03:00:00,57.2,54.3,29.57,SW,222,16.1,16.1,90,0.02,CLR,,0.20,0.0,WeatherDisplay:10.37,2013-04-02 01:00:00,
2013-04-02 03:02:00,57.2,54.3,29.57,SSW,212,11.5,11.5,90,0.02,CLR,,0.20,0.0,WeatherDisplay:10.37,2013-04-02 01:02:00,
2013-04-02 03:03:00,57.2,54.3,29.56,South,188,11.5,11.5,90,0.02,CLR,,0.20,0.0,WeatherDisplay:10.37,2013-04-02 01:03:00,
2013-04-02 03:05:00,57.2,54.3,29.56,SW,218,11.5,11.5,90,0.02,CLR,,0.20,0.0,WeatherDisplay:10.37,2013-04-02 01:05:00,
2013-04-02 03:08:00,57.2,54.3,29.56,SSW,207,10.4,10.4,90,0.02,CLR,,0.20,0.0,WeatherDisplay:10.37,2013-04-02 01:08:00,
2013-04-02 03:10:00,57.2,54.3,29.56,SSW,204,11.5,11.5,90,0.02,CLR,,0.20,0.0,WeatherDisplay:10.37,2013-04-02 01:10:00,
2013-04-02 03:13:00,57.2,54.3,29.56,SSW,207,10.4,10.4,90,0.01,CLR,,0.20,0.0,WeatherDisplay:10.37,2013-04-02 01:13:00,
2013-04-02 03:14:00,57.2,54.3,29.56,SW,223,9.2,9.2,90,0.01,CLR,,0.20,0.0,WeatherDisplay:10.37,2013-04-02 01:14:00,
2013-04-02 03:16:00,57.2,54.3,29.56,South,190,11.5,11.5,90,0.01,CLR,,0.20,0.0,WeatherDisplay:10.37,2013-04-02 01:16:00,
2013-04-02 03:18:00,57.2,54.3,29.56,SSW,196,11.5,11.5,90,0.02,RA,,0.21,0.0,WeatherDisplay:10.37,2013-04-02 01:18:00,
2013-04-02 03:19:00,57.2,54.3,29.55,SSW,196,9.2,9.2,90,0.02,RA,,0.21,0.0,WeatherDisplay:10.37,2013-04-02 01:19:00,
2013-04-02 03:21:00,57.3,54.4,29.55,SW,217,16.1,16.1,90,0.07,RA,,0.27,0.0,WeatherDisplay:10.37,2013-04-02 01:21:00,
2013-04-02 03:23:00,57.3,54.4,29.55,SW,227,12.0,12.0,90,0.09,RA,,0.28,0.0,WeatherDisplay:10.37,2013-04-02 01:23:00,
2013-04-02 03:24:00,57.3,54.4,29.55,SW,219,15.0,15.0,90,0.09,RA,,0.28,0.0,WeatherDisplay:10.37,2013-04-02 01:24:00,
2013-04-02 03:26:00,57.3,54.1,29.55,SW,235,19.6,19.6,89,0.09,RA,,0.28,0.0,WeatherDisplay:10.37,2013-04-02 01:26:00,
2013-04-02 03:29:00,57.3,54.1,29.55,SW,225,18.4,18.4,89,0.09,RA,,0.28,0.0,WeatherDisplay:10.37,2013-04-02 01:29:00,
2013-04-02 03:31:00,57.3,54.1,29.55,SSW,213,18.4,18.4,89,0.09,,,0.28,0.0,WeatherDisplay:10.37,2013-04-02 01:31:00,
2013-04-02 03:34:00,57.4,54.2,29.55,SW,229,12.7,12.7,89,0.09,CLR,,0.28,0.0,WeatherDisplay:10.37,2013-04-02 01:34:00,
2013-04-02 03:37:00,57.4,54.2,29.55,SW,232,15.0,15.0,89,0.10,RA,,0.29,0.0,WeatherDisplay:10.37,2013-04-02 01:37:00,
2013-04-02 03:39:00,57.4,54.2,29.55,SW,215,13.0,13.0,89,0.10,RA,,0.29,0.0,WeatherDisplay:10.37,2013-04-02 01:39:00,
2013-04-02 03:42:00,57.4,54.2,29.56,SW,235,12.0,12.0,89,0.09,RA,,0.29,0.0,WeatherDisplay:10.37,2013-04-02 01:42:00,
2013-04-02 03:44:00,57.4,54.2,29.56,SW,223,15.0,15.0,89,0.09,RA,,0.29,0.0,WeatherDisplay:10.37,2013-04-02 01:44:00,
2013-04-02 03:47:00,57.5,54.3,29.55,SW,227,15.0,15.0,89,0.09,,,0.29,0.0,WeatherDisplay:10.37,2013-04-02 01:47:00,
2013-04-02 03:49:00,57.5,54.3,29.55,SW,234,12.7,12.7,89,0.09,CLR,,0.29,0.0,WeatherDisplay:10.37,2013-04-02 01:49:00,
2013-04-02 03:52:00,57.5,54.3,29.55,SW,218,17.3,17.3,89,0.09,CLR,,0.29,0.0,WeatherDisplay:10.37,2013-04-02 01:52:00,
2013-04-02 03:54:00,57.5,54.3,29.55,SW,233,18.4,18.4,89,0.09,CLR,,0.29,0.0,WeatherDisplay:10.37,2013-04-02 01:54:00,
2013-04-02 03:55:00,57.5,54.3,29.55,SW,221,13.8,13.8,89,0.09,CLR,,0.29,0.0,WeatherDisplay:10.37,2013-04-02 01:55:00,
2013-04-02 03:58:00,57.5,54.3,29.55,WSW,246,18.4,18.4,89,0.09,CLR,,0.29,0.0,WeatherDisplay:10.37,2013-04-02 01:58:00,
2013-04-02 03:59:00,57.5,54.3,29.55,SW,219,18.4,18.4,89,0.09,CLR,,0.29,0.0,WeatherDisplay:10.37,2013-04-02 01:59:00,
2013-04-02 04:00:00,57.5,54.3,29.55,SW,232,18.0,18.0,89,0.09,CLR,,0.29,0.0,WeatherDisplay:10.37,2013-04-02 02:00:00,
2013-04-02 04:03:00,57.5,54.3,29.55,WSW,239,17.3,17.3,89,0.10,RA,,0.30,0.0,WeatherDisplay:10.37,2013-04-02 02:03:00,
2013-04-02 04:04:00,57.5,54.3,29.55,SW,233,13.8,13.8,89,0.10,RA,,0.30,0.0,WeatherDisplay:10.37,2013-04-02 02:04:00,
2013-04-02 04:05:00,57.5,54.3,29.55,WSW,240,13.8,13.8,89,0.10,RA,,0.30,0.0,WeatherDisplay:10.37,2013-04-02 02:05:00,
2013-04-02 04:08:00,57.5,54.3,29.55,SW,222,12.0,12.0,89,0.10,RA,,0.30,0.0,WeatherDisplay:10.37,2013-04-02 02:08:00,
2013-04-02 04:09:00,57.5,54.3,29.55,SW,229,12.7,12.7,89,0.10,RA,,0.30,0.0,WeatherDisplay:10.37,2013-04-02 02:09:00,
2013-04-02 04:10:00,57.5,54.3,29.55,WSW,249,11.5,11.5,89,0.10,RA,,0.30,0.0,WeatherDisplay:10.37,2013-04-02 02:10:00,
2013-04-02 04:13:00,57.5,54.3,29.55,WSW,238,15.0,15.0,89,0.10,CLR,,0.30,0.0,WeatherDisplay:10.37,2013-04-02 02:13:00,
2013-04-02 04:14:00,57.5,54.3,29.55,WSW,250,15.0,15.0,89,0.10,CLR,,0.30,0.0,WeatherDisplay:10.37,2013-04-02 02:14:00,
2013-04-02 04:15:00,57.5,54.3,29.56,WSW,242,16.1,16.1,89,0.10,CLR,,0.30,0.0,WeatherDisplay:10.37,2013-04-02 02:15:00,
2013-04-02 04:18:00,57.5,54.3,29.55,SW,220,11.5,11.5,89,0.09,CLR,,0.30,0.0,WeatherDisplay:10.37,2013-04-02 02:18:00,
2013-04-02 04:19:00,57.5,54.3,29.55,SW,232,11.5,11.5,89,0.09,CLR,,0.30,0.0,WeatherDisplay:10.37,2013-04-02 02:19:00,
2013-04-02 04:20:00,57.4,54.2,29.55,SW,219,9.2,9.2,89,0.09,CLR,,0.30,0.0,WeatherDisplay:10.37,2013-04-02 02:20:00,
2013-04-02 04:23:00,57.4,54.2,29.55,SW,217,13.8,13.8,89,0.02,CLR,,0.30,0.0,WeatherDisplay:10.37,2013-04-02 02:23:00,
2013-04-02 04:24:00,57.4,54.2,29.55,SW,227,13.8,13.8,89,0.02,CLR,,0.30,0.0,WeatherDisplay:10.37,2013-04-02 02:24:00,
2013-04-02 04:25:00,57.4,54.2,29.55,SW,223,9.2,9.2,89,0.02,CLR,,0.30,0.0,WeatherDisplay:10.37,2013-04-02 02:25:00,
2013-04-02 04:28:00,57.4,54.2,29.55,WSW,250,10.4,10.4,89,0.02,CLR,,0.30,0.0,WeatherDisplay:10.37,2013-04-02 02:28:00,
2013-04-02 04:29:00,57.4,54.2,29.55,WSW,248,11.5,11.5,89,0.02,CLR,,0.30,0.0,WeatherDisplay:10.37,2013-04-02 02:29:00,
2013-04-02 04:30:00,57.4,54.2,29.55,SW,223,12.7,12.7,89,0.02,CLR,,0.30,0.0,WeatherDisplay:10.37,2013-04-02 02:30:00,
2013-04-02 04:33:00,57.4,54.2,29.55,SW,234,17.3,17.3,89,0.02,CLR,,0.30,0.0,WeatherDisplay:10.37,2013-04-02 02:33:00,
2013-04-02 04:34:00,57.4,54.2,29.55,SSW,205,17.3,17.3,89,0.02,CLR,,0.30,0.0,WeatherDisplay:10.37,2013-04-02 02:34:00,
2013-04-02 04:35:00,57.4,54.2,29.55,SW,234,15.0,15.0,89,0.02,CLR,,0.30,0.0,WeatherDisplay:10.37,2013-04-02 02:35:00,
2013-04-02 04:36:00,57.3,54.1,29.55,WSW,244,13.8,13.8,89,0.01,CLR,,0.30,0.0,WeatherDisplay:10.37,2013-04-02 02:36:00,
2013-04-02 04:39:00,57.4,54.2,29.55,SW,221,19.6,19.6,89,0.01,CLR,,0.30,0.0,WeatherDisplay:10.37,2013-04-02 02:39:00,
2013-04-02 04:40:00,57.4,54.2,29.55,West,259,20.7,20.7,89,0.01,CLR,,0.30,0.0,WeatherDisplay:10.37,2013-04-02 02:40:00,
2013-04-02 04:42:00,57.4,53.9,29.55,SW,232,13.0,13.0,88,0.01,CLR,,0.30,0.0,WeatherDisplay:10.37,2013-04-02 02:42:00,
2013-04-02 04:45:00,57.3,53.8,29.55,WSW,245,11.5,11.5,88,0.01,CLR,,0.30,0.0,WeatherDisplay:10.37,2013-04-02 02:45:00,
2013-04-02 04:47:00,57.4,53.9,29.55,WSW,246,17.3,17.3,88,0.01,CLR,,0.30,0.0,WeatherDisplay:10.37,2013-04-02 02:47:00,
2013-04-02 04:50:00,57.3,53.8,29.55,SW,219,17.3,17.3,88,0.01,CLR,,0.30,0.0,WeatherDisplay:10.37,2013-04-02 02:50:00,
2013-04-02 04:52:00,57.3,53.8,29.55,SW,217,16.1,16.1,88,0.01,CLR,,0.30,0.0,WeatherDisplay:10.37,2013-04-02 02:52:00,
2013-04-02 04:55:00,57.3,53.8,29.55,WSW,240,15.0,15.0,88,0.01,CLR,,0.30,0.0,WeatherDisplay:10.37,2013-04-02 02:55:00,
2013-04-02 04:57:00,57.2,53.7,29.55,WSW,237,11.5,11.5,88,0.01,CLR,,0.30,0.0,WeatherDisplay:10.37,2013-04-02 02:57:00,
2013-04-02 05:00:00,57.2,53.7,29.56,SW,232,19.6,19.6,88,0.01,CLR,,0.30,0.0,WeatherDisplay:10.37,2013-04-02 03:00:00,
2013-04-02 05:01:00,57.2,53.7,29.55,WSW,242,12.7,12.7,88,0.00,CLR,,0.30,0.0,WeatherDisplay:10.37,2013-04-02 03:01:00,
2013-04-02 05:02:00,57.1,53.6,29.55,WSW,256,12.7,12.7,88,0.00,CLR,,0.30,0.0,WeatherDisplay:10.37,2013-04-02 03:02:00,
2013-04-02 05:05:00,57.1,53.6,29.56,West,264,17.3,17.3,88,0.00,CLR,,0.30,0.0,WeatherDisplay:10.37,2013-04-02 03:05:00,
2013-04-02 05:07:00,57.0,53.5,29.56,West,261,13.8,13.8,88,0.00,CLR,,0.30,0.0,WeatherDisplay:10.37,2013-04-02 03:07:00,
2013-04-02 05:10:00,57.0,53.5,29.56,WSW,252,13.8,13.8,88,0.00,CLR,,0.30,0.0,WeatherDisplay:10.37,2013-04-02 03:10:00,
2013-04-02 05:12:00,56.9,53.4,29.56,WSW,250,13.8,13.8,88,0.00,CLR,,0.30,0.0,WeatherDisplay:10.37,2013-04-02 03:12:00,
2013-04-02 05:13:00,56.8,53.3,29.56,WSW,242,12.7,12.7,88,0.00,CLR,,0.30,0.0,WeatherDisplay:10.37,2013-04-02 03:13:00,
2013-04-02 05:15:00,56.8,53.3,29.56,WSW,244,11.5,11.5,88,0.00,CLR,,0.30,0.0,WeatherDisplay:10.37,2013-04-02 03:15:00,
2013-04-02 05:16:00,56.8,53.3,29.56,WSW,253,12.7,12.7,88,0.00,CLR,,0.30,0.0,WeatherDisplay:10.37,2013-04-02 03:16:00,
2013-04-02 05:17:00,56.7,53.2,29.56,West,269,11.5,11.5,88,0.00,CLR,,0.30,0.0,WeatherDisplay:10.37,2013-04-02 03:17:00,
2013-04-02 05:18:00,56.7,53.2,29.56,WSW,244,11.5,11.5,88,0.00,CLR,,0.30,0.0,WeatherDisplay:10.37,2013-04-02 03:18:00,
2013-04-02 05:20:00,56.7,53.2,29.56,SW,234,13.8,13.8,88,0.00,CLR,,0.30,0.0,WeatherDisplay:10.37,2013-04-02 03:20:00,
2013-04-02 05:21:00,56.7,53.2,29.56,SW,217,9.2,9.2,88,0.00,CLR,,0.30,0.0,WeatherDisplay:10.37,2013-04-02 03:21:00,
2013-04-02 05:22:00,56.6,53.1,29.56,WSW,248,15.0,15.0,88,0.00,CLR,,0.30,0.0,WeatherDisplay:10.37,2013-04-02 03:22:00,
2013-04-02 05:23:00,56.6,53.1,29.56,WSW,257,18.4,18.4,88,0.00,CLR,,0.30,0.0,WeatherDisplay:10.37,2013-04-02 03:23:00,
2013-04-02 05:25:00,56.6,53.1,29.56,West,265,12.7,12.7,88,0.00,CLR,,0.30,0.0,WeatherDisplay:10.37,2013-04-02 03:25:00,
2013-04-02 05:27:00,56.6,53.1,29.56,West,264,12.7,12.7,88,0.00,CLR,,0.30,0.0,WeatherDisplay:10.37,2013-04-02 03:27:00,
2013-04-02 05:28:00,56.6,53.1,29.56,West,269,12.7,12.7,88,0.00,CLR,,0.30,0.0,WeatherDisplay:10.37,2013-04-02 03:28:00,
2013-04-02 05:30:00,56.5,53.0,29.56,West,261,13.8,13.8,88,0.00,CLR,,0.30,0.0,WeatherDisplay:10.37,2013-04-02 03:30:00,
2013-04-02 05:32:00,56.5,53.0,29.56,SW,236,12.7,12.7,88,0.00,CLR,,0.30,0.0,WeatherDisplay:10.37,2013-04-02 03:32:00,
2013-04-02 05:33:00,56.5,53.0,29.55,WSW,248,9.0,9.0,88,0.00,CLR,,0.30,0.0,WeatherDisplay:10.37,2013-04-02 03:33:00,
2013-04-02 05:35:00,56.5,53.0,29.55,WSW,254,17.3,17.3,88,0.00,CLR,,0.30,0.0,WeatherDisplay:10.37,2013-04-02 03:35:00,
2013-04-02 05:37:00,56.4,52.9,29.56,WSW,238,18.4,18.4,88,0.00,CLR,,0.30,0.0,WeatherDisplay:10.37,2013-04-02 03:37:00,
2013-04-02 05:38:00,56.4,52.9,29.56,WSW,247,18.4,18.4,88,0.00,CLR,,0.30,0.0,WeatherDisplay:10.37,2013-04-02 03:38:00,
2013-04-02 05:41:00,56.4,52.9,29.55,SW,226,16.1,16.1,88,0.00,CLR,,0.30,0.0,WeatherDisplay:10.37,2013-04-02 03:41:00,
2013-04-02 05:42:00,56.4,52.9,29.55,West,260,16.1,16.1,88,0.00,CLR,,0.30,0.0,WeatherDisplay:10.37,2013-04-02 03:42:00,
2013-04-02 05:43:00,56.4,52.9,29.55,WSW,250,16.1,16.1,88,0.00,CLR,,0.30,0.0,WeatherDisplay:10.37,2013-04-02 03:43:00,
2013-04-02 05:46:00,56.3,52.8,29.55,WSW,252,10.4,10.4,88,0.00,CLR,,0.30,0.0,WeatherDisplay:10.37,2013-04-02 03:46:00,
2013-04-02 05:48:00,56.3,52.5,29.55,SW,236,12.7,12.7,87,0.00,CLR,,0.30,0.0,WeatherDisplay:10.37,2013-04-02 03:48:00,
2013-04-02 05:49:00,56.3,52.5,29.55,SW,229,11.5,11.5,87,0.00,CLR,,0.30,0.0,WeatherDisplay:10.37,2013-04-02 03:49:00,
2013-04-02 05:51:00,56.3,52.5,29.56,WSW,247,11.5,11.5,87,0.00,CLR,,0.30,0.0,WeatherDisplay:10.37,2013-04-02 03:51:00,
2013-04-02 05:53:00,56.2,52.4,29.56,SW,227,12.7,12.7,87,0.00,CLR,,0.30,0.0,WeatherDisplay:10.37,2013-04-02 03:53:00,
2013-04-02 05:54:00,56.2,52.4,29.56,WSW,246,11.0,11.0,87,0.00,CLR,,0.30,0.0,WeatherDisplay:10.37,2013-04-02 03:54:00,
2013-04-02 05:56:00,56.2,52.4,29.56,SW,214,13.0,13.0,87,0.00,OVC,,0.30,0.0,WeatherDisplay:10.37,2013-04-02 03:56:00,
2013-04-02 05:58:00,56.2,52.4,29.56,WSW,247,11.5,11.5,87,0.00,OVC,,0.30,0.0,WeatherDisplay:10.37,2013-04-02 03:58:00,
2013-04-02 05:59:00,56.2,52.4,29.55,WSW,250,9.2,9.9,87,0.00,OVC,,0.30,0.0,WeatherDisplay:10.37,2013-04-02 03:59:00,
2013-04-02 06:00:00,56.2,52.4,29.55,WSW,250,12.7,12.7,87,0.00,OVC,,0.30,0.0,WeatherDisplay:10.37,2013-04-02 04:00:00,
2013-04-02 06:05:00,56.1,52.3,29.56,SW,221,12.7,12.7,87,0.00,OVC,,0.30,0.0,WeatherDisplay:10.37,2013-04-02 04:05:00,
2013-04-02 06:10:00,56.1,52.3,29.56,WSW,254,11.5,11.5,87,0.00,OVC,,0.30,0.0,WeatherDisplay:10.37,2013-04-02 04:10:00,
2013-04-02 06:15:00,56.2,52.7,29.56,WSW,255,11.5,11.5,88,0.00,OVC,,0.30,0.0,WeatherDisplay:10.37,2013-04-02 04:15:00,
2013-04-02 06:16:00,56.2,52.4,29.56,WSW,250,9.2,9.2,87,0.00,OVC,,0.30,0.0,WeatherDisplay:10.37,2013-04-02 04:16:00,
2013-04-02 06:20:00,56.2,52.4,29.55,WSW,248,6.9,6.9,87,0.00,OVC,,0.30,0.0,WeatherDisplay:10.37,2013-04-02 04:20:00,
2013-04-02 06:22:00,56.2,52.4,29.56,SW,224,8.1,8.1,87,0.00,OVC,,0.30,0.0,WeatherDisplay:10.37,2013-04-02 04:22:00,
2013-04-02 06:25:00,56.2,52.4,29.56,SW,234,5.0,5.0,87,0.00,OVC,,0.30,0.0,WeatherDisplay:10.37,2013-04-02 04:25:00,
2013-04-02 06:26:00,56.2,52.4,29.56,WSW,238,5.8,5.8,87,0.00,OVC,,0.30,0.0,WeatherDisplay:10.37,2013-04-02 04:26:00,
2013-04-02 06:27:00,56.2,52.4,29.56,WSW,238,5.8,5.8,87,0.00,OVC,,0.30,0.0,WeatherDisplay:10.37,2013-04-02 04:27:00,
2013-04-02 06:30:00,56.1,52.3,29.56,WSW,252,8.1,8.1,87,0.00,OVC,,0.30,0.0,WeatherDisplay:10.37,2013-04-02 04:30:00,
2013-04-02 06:31:00,56.2,52.4,29.56,WSW,247,10.4,10.4,87,0.00,OVC,,0.30,0.0,WeatherDisplay:10.37,2013-04-02 04:31:00,
2013-04-02 06:32:00,56.1,52.3,29.56,SW,232,9.2,9.2,87,0.00,OVC,,0.30,0.0,WeatherDisplay:10.37,2013-04-02 04:32:00,
2013-04-02 06:35:00,56.1,52.6,29.55,West,263,8.0,8.0,88,0.00,OVC,,0.30,0.0,WeatherDisplay:10.37,2013-04-02 04:35:00,
2013-04-02 06:36:00,56.1,52.6,29.56,SW,236,9.2,9.2,88,0.00,OVC,,0.30,0.0,WeatherDisplay:10.37,2013-04-02 04:36:00,
2013-04-02 06:37:00,56.1,52.6,29.56,WSW,256,9.2,9.2,88,0.00,OVC,,0.30,0.0,WeatherDisplay:10.37,2013-04-02 04:37:00,
2013-04-02 06:40:00,56.1,52.6,29.55,West,263,9.2,9.2,88,0.00,OVC,,0.30,0.0,WeatherDisplay:10.37,2013-04-02 04:40:00,
2013-04-02 06:42:00,56.1,52.6,29.55,West,261,6.9,6.9,88,0.00,OVC,,0.30,0.0,WeatherDisplay:10.37,2013-04-02 04:42:00,
2013-04-02 06:43:00,56.1,52.6,29.55,SW,236,9.0,9.0,88,0.00,OVC,,0.30,0.0,WeatherDisplay:10.37,2013-04-02 04:43:00,
2013-04-02 06:45:00,56.1,52.6,29.55,SW,234,9.2,9.2,88,0.00,OVC,,0.30,0.0,WeatherDisplay:10.37,2013-04-02 04:45:00,
2013-04-02 06:47:00,56.1,52.6,29.55,SSW,211,8.1,8.1,88,0.00,OVC,,0.30,0.0,WeatherDisplay:10.37,2013-04-02 04:47:00,
2013-04-02 06:48:00,56.0,52.5,29.55,SW,215,8.1,8.1,88,0.00,OVC,,0.30,0.0,WeatherDisplay:10.37,2013-04-02 04:48:00,
2013-04-02 06:51:00,56.0,52.5,29.55,WSW,245,9.2,9.2,88,0.00,OVC,,0.30,0.0,WeatherDisplay:10.37,2013-04-02 04:51:00,
2013-04-02 06:52:00,56.0,52.5,29.55,SSW,213,8.1,8.1,88,0.00,OVC,,0.30,0.0,WeatherDisplay:10.37,2013-04-02 04:52:00,
2013-04-02 06:53:00,56.0,52.5,29.55,SW,215,8.1,8.1,88,0.00,OVC,,0.30,0.0,WeatherDisplay:10.37,2013-04-02 04:53:00,
2013-04-02 06:56:00,55.9,52.4,29.56,SW,236,8.1,8.1,88,0.00,OVC,,0.30,0.0,WeatherDisplay:10.37,2013-04-02 04:56:00,
2013-04-02 06:58:00,55.9,52.4,29.55,SW,219,8.0,8.0,88,0.00,OVC,,0.30,0.0,WeatherDisplay:10.37,2013-04-02 04:58:00,
2013-04-02 07:01:00,55.9,52.4,29.55,SSW,211,6.9,6.9,88,0.00,OVC,,0.30,5.0,WeatherDisplay:10.37,2013-04-02 05:01:00,
2013-04-02 07:03:00,55.9,52.4,29.55,SW,214,6.9,6.9,88,0.00,OVC,,0.30,5.0,WeatherDisplay:10.37,2013-04-02 05:03:00,
2013-04-02 07:04:00,55.8,52.3,29.55,SW,215,8.1,8.1,88,0.00,OVC,,0.30,7.0,WeatherDisplay:10.37,2013-04-02 05:04:00,
2013-04-02 07:06:00,55.8,52.3,29.55,SSW,209,7.0,7.0,88,0.00,OVC,,0.30,7.0,WeatherDisplay:10.37,2013-04-02 05:06:00,
2013-04-02 07:08:00,55.8,52.3,29.55,SW,226,8.1,8.1,88,0.00,OVC,,0.30,7.0,WeatherDisplay:10.37,2013-04-02 05:08:00,
2013-04-02 07:09:00,55.8,52.3,29.55,SW,226,5.0,5.0,88,0.00,OVC,,0.30,7.0,WeatherDisplay:10.37,2013-04-02 05:09:00,
2013-04-02 07:11:00,55.7,52.2,29.56,SW,226,3.5,3.5,88,0.00,OVC,,0.30,9.0,WeatherDisplay:10.37,2013-04-02 05:11:00,
2013-04-02 07:13:00,55.7,52.2,29.55,SW,223,4.6,4.6,88,0.00,OVC,,0.30,7.0,WeatherDisplay:10.37,2013-04-02 05:13:00,
2013-04-02 07:14:00,55.7,52.2,29.56,SW,221,4.6,4.6,88,0.00,OVC,,0.30,5.0,WeatherDisplay:10.37,2013-04-02 05:14:00,
2013-04-02 07:16:00,55.7,52.2,29.55,SSW,211,4.6,4.6,88,0.00,OVC,,0.30,5.0,WeatherDisplay:10.37,2013-04-02 05:16:00,
2013-04-02 07:19:00,55.7,52.2,29.55,SSW,205,4.6,4.6,88,0.00,OVC,,0.30,5.0,WeatherDisplay:10.37,2013-04-02 05:19:00,
2013-04-02 07:22:00,55.6,52.1,29.55,SSW,209,5.8,5.8,88,0.00,OVC,,0.30,11.0,WeatherDisplay:10.37,2013-04-02 05:22:00,
2013-04-02 07:24:00,55.6,52.1,29.55,SSW,210,7.0,7.0,88,0.00,OVC,,0.30,12.0,WeatherDisplay:10.37,2013-04-02 05:24:00,
2013-04-02 07:27:00,55.6,52.1,29.55,SW,219,6.9,6.9,88,0.00,OVC,,0.30,11.0,WeatherDisplay:10.37,2013-04-02 05:27:00,
2013-04-02 07:29:00,55.6,52.1,29.55,SW,219,4.6,4.6,88,0.00,OVC,,0.30,11.0,WeatherDisplay:10.37,2013-04-02 05:29:00,
2013-04-02 07:33:00,55.6,52.1,29.54,SW,219,5.8,5.8,88,0.00,OVC,,0.30,16.0,WeatherDisplay:10.37,2013-04-02 05:33:00,
2013-04-02 07:34:00,55.5,52.0,29.54,SW,219,3.5,3.5,88,0.00,OVC,,0.30,16.0,WeatherDisplay:10.37,2013-04-02 05:34:00,
2013-04-02 07:35:00,55.5,52.0,29.54,SW,219,3.5,3.5,88,0.00,OVC,,0.30,16.0,WeatherDisplay:10.37,2013-04-02 05:35:00,
2013-04-02 07:38:00,55.5,52.0,29.54,SW,219,4.6,4.6,88,0.00,OVC,,0.30,16.0,WeatherDisplay:10.37,2013-04-02 05:38:00,
2013-04-02 07:39:00,55.5,52.0,29.54,SW,219,3.5,3.5,88,0.00,OVC,,0.30,16.0,WeatherDisplay:10.37,2013-04-02 05:39:00,
2013-04-02 07:40:00,55.5,52.0,29.54,SSW,193,6.0,6.0,88,0.00,OVC,,0.30,16.0,WeatherDisplay:10.37,2013-04-02 05:40:00,
2013-04-02 07:43:00,55.5,52.0,29.54,SSW,195,5.8,5.8,88,0.00,OVC,,0.30,18.0,WeatherDisplay:10.37,2013-04-02 05:43:00,
2013-04-02 07:44:00,55.4,51.9,29.53,SSW,195,5.0,5.0,88,0.00,OVC,,0.30,21.0,WeatherDisplay:10.37,2013-04-02 05:44:00,
2013-04-02 07:45:00,55.4,51.9,29.53,SSW,196,5.0,5.0,88,0.00,OVC,,0.30,21.0,WeatherDisplay:10.37,2013-04-02 05:45:00,
2013-04-02 07:48:00,55.4,51.9,29.53,South,190,6.9,6.9,88,0.00,OVC,,0.30,28.0,WeatherDisplay:10.37,2013-04-02 05:48:00,
2013-04-02 07:50:00,55.4,51.9,29.53,SSW,192,5.8,5.8,88,0.00,OVC,,0.31,33.0,WeatherDisplay:10.37,2013-04-02 05:50:00,
2013-04-02 07:53:00,55.4,51.9,29.53,SSW,194,5.0,5.0,88,0.01,RA,,0.31,33.0,WeatherDisplay:10.37,2013-04-02 05:53:00,
2013-04-02 07:55:00,55.4,51.9,29.53,SSW,194,5.8,5.8,88,0.01,RA,,0.31,26.0,WeatherDisplay:10.37,2013-04-02 05:55:00,
2013-04-02 07:56:00,55.4,51.9,29.53,SSW,194,4.6,4.6,88,0.01,RA,,0.31,26.0,WeatherDisplay:10.37,2013-04-02 05:56:00,
2013-04-02 07:58:00,55.4,51.9,29.53,SSW,195,4.6,4.6,88,0.01,RA,,0.31,14.0,WeatherDisplay:10.37,2013-04-02 05:58:00,
2013-04-02 08:00:00,55.4,51.9,29.53,SSW,200,6.9,6.9,88,0.01,RA,,0.32,11.0,WeatherDisplay:10.37,2013-04-02 06:00:00,
2013-04-02 08:01:00,55.4,51.9,29.53,SSW,197,6.9,6.9,88,0.03,RA,,0.33,9.0,WeatherDisplay:10.37,2013-04-02 06:01:00,
2013-04-02 08:03:00,55.4,51.9,29.53,South,184,5.0,5.0,88,0.04,RA,,0.34,7.0,WeatherDisplay:10.37,2013-04-02 06:03:00,
2013-04-02 08:05:00,55.4,51.9,29.53,South,184,4.0,4.0,88,0.05,RA,,0.35,7.0,WeatherDisplay:10.37,2013-04-02 06:05:00,
2013-04-02 08:06:00,55.5,52.0,29.53,SSW,206,5.0,5.0,88,0.05,RA,,0.36,7.0,WeatherDisplay:10.37,2013-04-02 06:06:00,
2013-04-02 08:08:00,55.4,51.9,29.53,SSE,162,5.8,5.8,88,0.06,RA,,0.37,7.0,WeatherDisplay:10.37,2013-04-02 06:08:00,
2013-04-02 08:10:00,55.4,51.9,29.53,SSE,161,5.8,5.8,88,0.07,RA,,0.37,7.0,WeatherDisplay:10.37,2013-04-02 06:10:00,
2013-04-02 08:11:00,55.4,51.9,29.53,SSW,204,8.1,8.1,88,0.07,RA,,0.37,7.0,WeatherDisplay:10.37,2013-04-02 06:11:00,
2013-04-02 08:12:00,55.4,51.9,29.53,SSW,200,8.1,8.1,88,0.07,RA,,0.37,7.0,WeatherDisplay:10.37,2013-04-02 06:12:00,
2013-04-02 08:13:00,55.4,51.9,29.53,South,180,5.8,5.8,88,0.08,RA,,0.38,9.0,WeatherDisplay:10.37,2013-04-02 06:13:00,
2013-04-02 08:15:00,55.4,51.9,29.53,SSW,194,8.1,8.1,88,0.08,RA,,0.38,12.0,WeatherDisplay:10.37,2013-04-02 06:15:00,
2013-04-02 08:16:00,55.4,51.9,29.52,SW,217,7.0,7.0,88,0.08,RA,,0.38,12.0,WeatherDisplay:10.37,2013-04-02 06:16:00,
2013-04-02 08:17:00,55.4,51.9,29.52,SW,214,4.0,4.6,88,0.08,RA,,0.38,12.0,WeatherDisplay:10.37,2013-04-02 06:17:00,
2013-04-02 08:19:00,55.3,51.8,29.52,SSW,202,7.0,7.0,88,0.08,RA,,0.38,14.0,WeatherDisplay:10.37,2013-04-02 06:19:00,
2013-04-02 08:21:00,55.3,51.8,29.52,SSW,204,6.9,6.9,88,0.08,RA,,0.38,11.0,WeatherDisplay:10.37,2013-04-02 06:21:00,
2013-04-02 08:22:00,55.3,51.8,29.52,South,188,10.0,10.0,88,0.08,RA,,0.38,9.0,WeatherDisplay:10.37,2013-04-02 06:22:00,
2013-04-02 08:24:00,55.2,51.7,29.52,SSW,208,6.9,6.9,88,0.08,OVC,,0.38,21.0,WeatherDisplay:10.37,2013-04-02 06:24:00,
2013-04-02 08:26:00,55.2,51.7,29.52,SSW,209,4.6,4.6,88,0.08,OVC,,0.38,21.0,WeatherDisplay:10.37,2013-04-02 06:26:00,
2013-04-02 08:27:00,55.2,51.7,29.52,SW,227,5.0,5.5,88,0.08,OVC,,0.38,30.0,WeatherDisplay:10.37,2013-04-02 06:27:00,
2013-04-02 08:29:00,55.2,51.7,29.52,SW,222,6.9,6.9,88,0.08,OVC,,0.38,46.0,WeatherDisplay:10.37,2013-04-02 06:29:00,
2013-04-02 08:31:00,55.2,51.7,29.52,SW,221,6.9,6.9,88,0.08,OVC,,0.38,32.0,WeatherDisplay:10.37,2013-04-02 06:31:00,
2013-04-02 08:32:00,55.2,51.7,29.52,SW,221,6.9,6.9,88,0.08,OVC,,0.38,0.0,WeatherDisplay:10.37,2013-04-02 06:32:00,
2013-04-02 08:34:00,55.3,51.8,29.52,SW,220,6.9,6.9,88,0.08,OVC,,0.38,32.0,WeatherDisplay:10.37,2013-04-02 06:34:00,
2013-04-02 08:37:00,55.4,51.9,29.52,SW,229,8.1,8.1,88,0.08,OVC,,0.38,62.0,WeatherDisplay:10.37,2013-04-02 06:37:00,
2013-04-02 08:39:00,55.5,52.0,29.52,SW,218,7.0,7.0,88,0.08,OVC,,0.38,65.0,WeatherDisplay:10.37,2013-04-02 06:39:00,
2013-04-02 08:42:00,55.6,52.1,29.52,SW,214,8.1,8.1,88,0.08,OVC,,0.38,107.0,WeatherDisplay:10.37,2013-04-02 06:42:00,
2013-04-02 08:44:00,55.7,52.2,29.52,SW,228,8.1,8.1,88,0.08,OVC,,0.38,146.0,WeatherDisplay:10.37,2013-04-02 06:44:00,
2013-04-02 08:47:00,55.8,52.6,29.52,SW,223,8.1,8.1,89,0.08,OVC,,0.38,279.0,WeatherDisplay:10.37,2013-04-02 06:47:00,
2013-04-02 08:49:00,56.0,52.8,29.52,SW,215,6.9,6.9,89,0.08,OVC,,0.38,121.0,WeatherDisplay:10.37,2013-04-02 06:49:00,
2013-04-02 08:52:00,56.2,53.0,29.52,SW,214,4.6,4.6,89,0.07,OVC,,0.38,257.0,WeatherDisplay:10.37,2013-04-02 06:52:00,
2013-04-02 08:53:00,56.3,53.1,29.52,SW,214,6.9,6.9,89,0.07,OVC,,0.38,313.0,WeatherDisplay:10.37,2013-04-02 06:53:00,
2013-04-02 08:54:00,56.4,53.2,29.52,SW,214,4.6,4.6,89,0.07,OVC,,0.38,313.0,WeatherDisplay:10.37,2013-04-02 06:54:00,
2013-04-02 08:57:00,56.5,53.3,29.52,SW,217,5.0,5.0,89,0.07,OVC,,0.38,214.0,WeatherDisplay:10.37,2013-04-02 06:57:00,
2013-04-02 08:58:00,56.6,53.4,29.52,SW,219,6.0,6.0,89,0.07,OVC,,0.38,214.0,WeatherDisplay:10.37,2013-04-02 06:58:00,
2013-04-02 08:59:00,56.7,53.5,29.52,SW,219,6.9,6.9,89,0.07,OVC,,0.38,258.0,WeatherDisplay:10.37,2013-04-02 06:59:00,
2013-04-02 09:02:00,56.9,53.7,29.51,SW,221,6.9,6.9,89,0.04,OVC,,0.38,243.0,WeatherDisplay:10.37,2013-04-02 07:02:00,
2013-04-02 09:03:00,57.0,53.8,29.51,SSW,202,6.9,6.9,89,0.04,OVC,,0.38,243.0,WeatherDisplay:10.37,2013-04-02 07:03:00,
2013-04-02 09:05:00,57.1,53.9,29.52,WSW,250,5.8,5.8,89,0.03,OVC,,0.38,243.0,WeatherDisplay:10.37,2013-04-02 07:05:00,
2013-04-02 09:08:00,57.1,53.9,29.51,SSW,211,11.5,11.5,89,0.02,OVC,,0.38,139.0,WeatherDisplay:10.37,2013-04-02 07:08:00,
2013-04-02 09:10:00,57.1,53.6,29.52,SSW,212,15.0,15.0,88,0.01,OVC,,0.38,139.0,WeatherDisplay:10.37,2013-04-02 07:10:00,
2013-04-02 09:13:00,57.2,53.7,29.51,SSW,205,11.5,11.5,88,0.00,OVC,,0.38,373.0,WeatherDisplay:10.37,2013-04-02 07:13:00,
2013-04-02 09:15:00,57.2,53.7,29.51,SW,217,18.4,18.4,88,0.00,OVC,,0.38,376.0,WeatherDisplay:10.37,2013-04-02 07:15:00,
2013-04-02 09:18:00,57.4,53.9,29.51,SSW,212,13.8,13.8,88,0.00,OVC,,0.38,388.0,WeatherDisplay:10.37,2013-04-02 07:18:00,
2013-04-02 09:20:00,57.5,54.0,29.51,SSW,192,17.3,17.3,88,0.00,OVC,,0.38,392.0,WeatherDisplay:10.37,2013-04-02 07:20:00,
2013-04-02 09:23:00,57.8,54.0,29.51,SW,215,11.5,11.5,87,0.00,OVC,,0.38,403.0,WeatherDisplay:10.37,2013-04-02 07:23:00,
2013-04-02 09:24:00,57.9,54.1,29.51,SSW,196,12.7,12.7,87,0.00,OVC,,0.38,403.0,WeatherDisplay:10.37,2013-04-02 07:24:00,
2013-04-02 09:25:00,57.9,54.1,29.51,South,176,10.4,10.4,87,0.00,OVC,,0.38,424.0,WeatherDisplay:10.37,2013-04-02 07:25:00,
2013-04-02 09:28:00,58.0,53.8,29.51,SW,229,12.7,12.7,86,0.00,OVC,,0.38,422.0,WeatherDisplay:10.37,2013-04-02 07:28:00,
2013-04-02 09:29:00,58.2,54.0,29.51,SSW,194,12.7,12.7,86,0.00,OVC,,0.38,432.0,WeatherDisplay:10.37,2013-04-02 07:29:00,
2013-04-02 09:30:00,58.3,54.1,29.51,SW,217,11.5,11.5,86,0.00,OVC,,0.38,431.0,WeatherDisplay:10.37,2013-04-02 07:30:00,
2013-04-02 09:33:00,58.4,53.9,29.51,SW,219,13.8,13.8,85,0.00,OVC,,0.38,469.0,WeatherDisplay:10.37,2013-04-02 07:33:00,
2013-04-02 09:34:00,58.5,54.0,29.51,WSW,244,12.0,12.0,85,0.00,OVC,,0.38,469.0,WeatherDisplay:10.37,2013-04-02 07:34:00,
2013-04-02 09:35:00,58.5,54.0,29.51,SSW,202,14.0,14.0,85,0.00,OVC,,0.38,469.0,WeatherDisplay:10.37,2013-04-02 07:35:00,
2013-04-02 09:38:00,58.9,54.4,29.51,SSW,207,11.5,11.5,85,0.00,OVC,,0.38,487.0,WeatherDisplay:10.37,2013-04-02 07:38:00,
2013-04-02 09:39:00,58.9,54.1,29.51,SSW,195,11.5,11.5,84,0.00,OVC,,0.38,487.0,WeatherDisplay:10.37,2013-04-02 07:39:00,
2013-04-02 09:40:00,58.9,54.1,29.51,SSW,208,12.7,12.7,84,0.00,OVC,,0.38,487.0,WeatherDisplay:10.37,2013-04-02 07:40:00,
2013-04-02 09:43:00,58.6,53.1,29.51,SSW,207,17.3,17.3,82,0.00,OVC,,0.38,570.0,WeatherDisplay:10.37,2013-04-02 07:43:00,
2013-04-02 09:44:00,58.5,53.0,29.51,SSW,202,17.3,17.3,82,0.00,OVC,,0.38,570.0,WeatherDisplay:10.37,2013-04-02 07:44:00,
2013-04-02 09:45:00,58.5,53.0,29.51,South,188,16.1,16.1,82,0.00,OVC,,0.38,568.0,WeatherDisplay:10.37,2013-04-02 07:45:00,
2013-04-02 09:48:00,58.5,53.0,29.51,SW,215,17.3,17.3,82,0.00,OVC,,0.38,543.0,WeatherDisplay:10.37,2013-04-02 07:48:00,
2013-04-02 09:49:00,58.6,53.1,29.51,SW,230,17.3,17.3,82,0.00,OVC,,0.38,543.0,WeatherDisplay:10.37,2013-04-02 07:49:00,
2013-04-02 09:50:00,58.9,53.4,29.51,SSW,208,11.5,11.5,82,0.00,OVC,,0.38,543.0,WeatherDisplay:10.37,2013-04-02 07:50:00,
2013-04-02 09:54:00,59.0,53.2,29.51,SSW,194,16.1,16.1,81,0.00,OVC,,0.38,693.0,WeatherDisplay:10.37,2013-04-02 07:54:00,
2013-04-02 09:55:00,59.2,53.4,29.50,SSW,196,13.8,13.8,81,0.00,OVC,,0.38,693.0,WeatherDisplay:10.37,2013-04-02 07:55:00,
2013-04-02 09:59:00,59.5,53.3,29.50,SSW,194,14.0,14.0,80,0.00,OVC,,0.38,654.0,WeatherDisplay:10.37,2013-04-02 07:59:00,
2013-04-02 10:00:00,59.5,53.3,29.50,SW,229,16.1,16.1,80,0.00,OVC,,0.38,654.0,WeatherDisplay:10.37,2013-04-02 08:00:00,
2013-04-02 10:04:00,59.8,53.3,29.50,SSW,194,19.6,19.6,79,0.00,OVC,,0.38,671.0,WeatherDisplay:10.37,2013-04-02 08:04:00,
2013-04-02 10:05:00,59.9,53.4,29.50,SSW,206,16.1,16.1,79,0.00,OVC,,0.38,705.0,WeatherDisplay:10.37,2013-04-02 08:05:00,
2013-04-02 10:09:00,59.8,52.6,29.50,South,190,18.4,18.4,77,0.00,OVC,,0.38,708.0,WeatherDisplay:10.37,2013-04-02 08:09:00,
2013-04-02 10:10:00,59.9,52.7,29.50,SSW,209,20.7,20.7,77,0.00,OVC,,0.38,708.0,WeatherDisplay:10.37,2013-04-02 08:10:00,
2013-04-02 10:11:00,59.9,52.3,29.50,SSW,204,18.0,18.0,76,0.00,OVC,,0.38,691.0,WeatherDisplay:10.37,2013-04-02 08:11:00,
2013-04-02 10:14:00,60.3,52.7,29.50,SW,214,13.8,13.8,76,0.00,OVC,,0.38,601.0,WeatherDisplay:10.37,2013-04-02 08:14:00,
2013-04-02 10:15:00,60.4,52.8,29.50,SW,225,18.4,18.4,76,0.00,OVC,,0.38,601.0,WeatherDisplay:10.37,2013-04-02 08:15:00,
2013-04-02 10:16:00,60.4,52.8,29.50,SW,228,18.4,18.4,76,0.00,OVC,,0.38,269.0,WeatherDisplay:10.37,2013-04-02 08:16:00,
2013-04-02 10:17:00,60.5,52.5,29.50,West,263,19.6,19.6,75,0.00,OVC,,0.38,332.0,WeatherDisplay:10.37,2013-04-02 08:17:00,
2013-04-02 10:19:00,60.5,52.2,29.50,WSW,243,18.4,18.4,74,0.00,OVC,,0.38,234.0,WeatherDisplay:10.37,2013-04-02 08:19:00,
2013-04-02 10:20:00,60.4,52.1,29.50,SW,230,18.4,18.4,74,0.00,OVC,,0.38,234.0,WeatherDisplay:10.37,2013-04-02 08:20:00,
2013-04-02 10:21:00,60.4,52.4,29.50,SW,223,18.4,18.4,75,0.00,OVC,,0.38,234.0,WeatherDisplay:10.37,2013-04-02 08:21:00,
2013-04-02 10:22:00,60.4,52.4,29.50,South,189,17.0,17.0,75,0.00,OVC,,0.38,316.0,WeatherDisplay:10.37,2013-04-02 08:22:00,
2013-04-02 10:24:00,60.2,51.9,29.50,SSW,201,19.6,19.6,74,0.00,OVC,,0.38,316.0,WeatherDisplay:10.37,2013-04-02 08:24:00,
2013-04-02 10:25:00,60.2,51.9,29.50,SSW,204,21.9,21.9,74,0.00,OVC,,0.38,316.0,WeatherDisplay:10.37,2013-04-02 08:25:00,
2013-04-02 10:27:00,60.2,52.2,29.50,South,190,21.9,21.9,75,0.00,OVC,,0.38,749.0,WeatherDisplay:10.37,2013-04-02 08:27:00,
2013-04-02 10:29:00,60.4,52.4,29.50,SSW,209,19.6,19.6,75,0.00,OVC,,0.38,773.0,WeatherDisplay:10.37,2013-04-02 08:29:00,
2013-04-02 10:30:00,60.5,52.5,29.50,SSW,207,16.1,16.1,75,0.00,OVC,,0.38,780.0,WeatherDisplay:10.37,2013-04-02 08:30:00,
2013-04-02 10:32:00,60.7,52.7,29.50,SW,217,15.0,15.0,75,0.00,OVC,,0.38,819.0,WeatherDisplay:10.37,2013-04-02 08:32:00,
2013-04-02 10:34:00,60.9,52.9,29.50,SW,219,19.6,19.6,75,0.00,OVC,,0.38,800.0,WeatherDisplay:10.37,2013-04-02 08:34:00,
2013-04-02 10:36:00,61.1,53.1,29.50,SSW,196,18.0,18.0,75,0.00,OVC,,0.38,823.0,WeatherDisplay:10.37,2013-04-02 08:36:00,
2013-04-02 10:37:00,61.2,52.8,29.50,SSW,199,19.6,19.6,74,0.00,OVC,,0.38,823.0,WeatherDisplay:10.37,2013-04-02 08:37:00,
2013-04-02 10:39:00,61.2,52.8,29.50,SW,220,15.0,15.0,74,0.00,OVC,,0.38,294.0,WeatherDisplay:10.37,2013-04-02 08:39:00,
2013-04-02 10:41:00,61.2,52.8,29.50,SSE,166,17.3,17.3,74,0.00,OVC,,0.38,244.0,WeatherDisplay:10.37,2013-04-02 08:41:00,
2013-04-02 10:42:00,61.0,52.7,29.50,SSW,196,17.3,17.3,74,0.00,OVC,,0.38,244.0,WeatherDisplay:10.37,2013-04-02 08:42:00,
2013-04-02 10:44:00,60.8,52.1,29.50,SW,221,19.6,19.6,73,0.00,OVC,,0.38,244.0,WeatherDisplay:10.37,2013-04-02 08:44:00,
2013-04-02 10:46:00,60.6,51.9,29.50,SW,220,21.9,21.9,73,0.00,OVC,,0.38,244.0,WeatherDisplay:10.37,2013-04-02 08:46:00,
2013-04-02 10:47:00,60.6,51.9,29.50,SSW,200,24.2,24.2,73,0.00,OVC,,0.38,244.0,WeatherDisplay:10.37,2013-04-02 08:47:00,
2013-04-02 10:50:00,60.4,51.7,29.50,SSW,210,20.7,20.7,73,0.00,OVC,,0.38,828.0,WeatherDisplay:10.37,2013-04-02 08:50:00,
2013-04-02 10:51:00,60.6,52.3,29.50,SSW,204,18.4,18.4,74,0.00,OVC,,0.38,828.0,WeatherDisplay:10.37,2013-04-02 08:51:00,
2013-04-02 10:52:00,60.8,52.5,29.50,South,176,18.4,18.4,74,0.00,OVC,,0.38,728.0,WeatherDisplay:10.37,2013-04-02 08:52:00,
2013-04-02 10:53:00,60.8,52.5,29.50,South,176,18.4,18.4,74,0.00,OVC,,0.38,728.0,WeatherDisplay:10.37,2013-04-02 08:53:00,
2013-04-02 10:55:00,61.2,53.2,29.50,SSE,163,12.7,12.7,75,0.00,OVC,,0.38,698.0,WeatherDisplay:10.37,2013-04-02 08:55:00,
2013-04-02 10:57:00,61.4,52.7,29.50,SSW,195,18.4,18.4,73,0.00,OVC,,0.38,684.0,WeatherDisplay:10.37,2013-04-02 08:57:00,
2013-04-02 10:58:00,61.4,52.7,29.50,SW,218,17.3,17.3,73,0.00,OVC,,0.38,684.0,WeatherDisplay:10.37,2013-04-02 08:58:00,
2013-04-02 11:00:00,61.3,52.2,29.50,SSW,197,18.4,18.4,72,0.00,OVC,,0.38,700.0,WeatherDisplay:10.37,2013-04-02 09:00:00,
2013-04-02 11:02:00,61.4,52.7,29.50,SSE,163,16.1,16.1,73,0.00,OVC,,0.38,645.0,WeatherDisplay:10.37,2013-04-02 09:02:00,
2013-04-02 11:03:00,61.5,52.8,29.50,SSW,208,12.7,12.7,73,0.00,OVC,,0.38,645.0,WeatherDisplay:10.37,2013-04-02 09:03:00,
2013-04-02 11:04:00,61.5,52.8,29.50,SSW,194,13.8,13.8,73,0.00,OVC,,0.38,206.0,WeatherDisplay:10.37,2013-04-02 09:04:00,
2013-04-02 11:05:00,61.5,52.4,29.50,SW,217,17.3,17.3,72,0.00,OVC,,0.38,269.0,WeatherDisplay:10.37,2013-04-02 09:05:00,
2013-04-02 11:07:00,61.4,52.3,29.50,SSW,192,17.3,17.3,72,0.00,OVC,,0.38,828.0,WeatherDisplay:10.37,2013-04-02 09:07:00,
2013-04-02 11:08:00,61.3,52.2,29.50,SSW,194,18.4,18.4,72,0.00,OVC,,0.38,0.0,WeatherDisplay:10.37,2013-04-02 09:08:00,
2013-04-02 11:09:00,61.3,52.2,29.50,SSW,211,18.4,18.4,72,0.00,OVC,,0.38,838.0,WeatherDisplay:10.37,2013-04-02 09:09:00,
2013-04-02 11:10:00,61.3,52.2,29.50,SW,223,17.3,17.3,72,0.00,OVC,,0.38,838.0,WeatherDisplay:10.37,2013-04-02 09:10:00,
2013-04-02 11:12:00,61.4,52.7,29.50,SSW,213,19.0,19.0,73,0.00,OVC,,0.38,239.0,WeatherDisplay:10.37,2013-04-02 09:12:00,
2013-04-02 11:13:00,61.4,52.7,29.50,South,179,19.6,19.6,73,0.00,OVC,,0.38,172.0,WeatherDisplay:10.37,2013-04-02 09:13:00,
2013-04-02 11:14:00,61.4,52.7,29.50,South,190,18.4,18.4,73,0.00,OVC,,0.38,144.0,WeatherDisplay:10.37,2013-04-02 09:14:00,
2013-04-02 11:15:00,61.3,52.6,29.50,SSW,200,21.9,21.9,73,0.00,OVC,,0.38,144.0,WeatherDisplay:10.37,2013-04-02 09:15:00,
2013-04-02 11:17:00,61.0,51.9,29.50,SSW,209,19.6,19.6,72,0.00,OVC,,0.38,195.0,WeatherDisplay:10.37,2013-04-02 09:17:00,
2013-04-02 11:18:00,60.8,51.7,29.50,SSW,196,13.0,13.0,72,0.00,OVC,,0.38,195.0,WeatherDisplay:10.37,2013-04-02 09:18:00,
2013-04-02 11:20:00,60.7,51.6,29.50,SSW,202,15.0,15.0,72,0.00,OVC,,0.38,195.0,WeatherDisplay:10.37,2013-04-02 09:20:00,
2013-04-02 11:23:00,60.7,51.6,29.50,SW,226,12.7,12.7,72,0.00,OVC,,0.38,244.0,WeatherDisplay:10.37,2013-04-02 09:23:00,
2013-04-02 11:24:00,60.7,51.6,29.50,SSW,196,12.7,12.7,72,0.00,OVC,,0.38,244.0,WeatherDisplay:10.37,2013-04-02 09:24:00,
2013-04-02 11:25:00,60.8,51.7,29.50,SSW,192,20.7,20.7,72,0.00,OVC,,0.38,364.0,WeatherDisplay:10.37,2013-04-02 09:25:00,
2013-04-02 11:28:00,60.8,51.7,29.50,SSW,201,16.1,16.1,72,0.00,OVC,,0.38,250.0,WeatherDisplay:10.37,2013-04-02 09:28:00,
2013-04-02 11:29:00,60.7,51.6,29.50,South,181,18.4,18.4,72,0.00,OVC,,0.38,250.0,WeatherDisplay:10.37,2013-04-02 09:29:00,
2013-04-02 11:30:00,60.7,51.6,29.50,SSW,200,19.6,19.6,72,0.00,OVC,,0.38,455.0,WeatherDisplay:10.37,2013-04-02 09:30:00,
2013-04-02 11:33:00,60.8,51.7,29.50,SSW,208,18.4,18.4,72,0.00,OVC,,0.38,292.0,WeatherDisplay:10.37,2013-04-02 09:33:00,
2013-04-02 11:34:00,60.8,51.7,29.50,WSW,239,19.6,19.6,72,0.00,OVC,,0.38,962.0,WeatherDisplay:10.37,2013-04-02 09:34:00,
2013-04-02 11:35:00,61.0,52.3,29.50,SW,215,17.3,17.3,73,0.00,OVC,,0.38,962.0,WeatherDisplay:10.37,2013-04-02 09:35:00,
2013-04-02 11:38:00,61.2,52.5,29.50,SW,223,17.3,17.3,73,0.00,OVC,,0.38,956.0,WeatherDisplay:10.37,2013-04-02 09:38:00,
2013-04-02 11:39:00,61.2,52.5,29.50,SSW,198,12.7,12.7,73,0.00,OVC,,0.38,302.0,WeatherDisplay:10.37,2013-04-02 09:39:00,
2013-04-02 11:40:00,61.3,52.6,29.50,SSW,192,12.7,12.7,73,0.00,OVC,,0.38,294.0,WeatherDisplay:10.37,2013-04-02 09:40:00,
2013-04-02 11:43:00,61.4,53.0,29.50,SSW,207,13.8,13.8,74,0.00,OVC,,0.38,267.0,WeatherDisplay:10.37,2013-04-02 09:43:00,
2013-04-02 11:44:00,61.4,53.0,29.50,South,173,13.8,13.8,74,0.00,OVC,,0.38,267.0,WeatherDisplay:10.37,2013-04-02 09:44:00,
2013-04-02 11:45:00,61.3,52.9,29.50,South,183,15.0,15.0,74,0.00,OVC,,0.38,229.0,WeatherDisplay:10.37,2013-04-02 09:45:00,
2013-04-02 11:48:00,61.1,53.1,29.50,SSE,161,18.4,18.4,75,0.00,OVC,,0.38,345.0,WeatherDisplay:10.37,2013-04-02 09:48:00,
2013-04-02 11:49:00,61.1,53.1,29.50,SSE,161,18.4,18.4,75,0.00,OVC,,0.38,345.0,WeatherDisplay:10.37,2013-04-02 09:49:00,
2013-04-02 11:50:00,61.0,53.0,29.49,South,169,15.0,15.0,75,0.00,OVC,,0.38,431.0,WeatherDisplay:10.37,2013-04-02 09:50:00,
2013-04-02 11:53:00,61.0,53.0,29.50,South,174,18.4,18.4,75,0.00,OVC,,0.38,183.0,WeatherDisplay:10.37,2013-04-02 09:53:00,
2013-04-02 11:54:00,61.0,53.0,29.50,SW,219,18.4,18.4,75,0.00,OVC,,0.38,183.0,WeatherDisplay:10.37,2013-04-02 09:54:00,
2013-04-02 11:55:00,60.9,52.9,29.50,South,169,20.7,20.7,75,0.00,OVC,,0.38,183.0,WeatherDisplay:10.37,2013-04-02 09:55:00,
2013-04-02 11:58:00,60.6,52.6,29.50,SSW,196,18.4,18.4,75,0.00,OVC,,0.38,202.0,WeatherDisplay:10.37,2013-04-02 09:58:00,
2013-04-02 11:59:00,60.6,52.6,29.50,SSW,203,18.4,18.4,75,0.00,OVC,,0.38,188.0,WeatherDisplay:10.37,2013-04-02 09:59:00,
2013-04-02 12:00:00,60.5,52.9,29.50,SSW,201,18.4,18.4,76,0.00,OVC,,0.38,193.0,WeatherDisplay:10.37,2013-04-02 10:00:00,
2013-04-02 12:01:00,60.5,52.9,29.50,South,179,18.4,18.4,76,0.00,OVC,,0.38,193.0,WeatherDisplay:10.37,2013-04-02 10:01:00,
2013-04-02 12:04:00,60.3,52.7,29.50,SSW,207,13.8,13.8,76,0.00,OVC,,0.38,139.0,WeatherDisplay:10.37,2013-04-02 10:04:00,
2013-04-02 12:05:00,60.1,52.5,29.50,SSW,204,15.0,15.0,76,0.00,OVC,,0.38,134.0,WeatherDisplay:10.37,2013-04-02 10:05:00,
2013-04-02 12:07:00,60.0,52.8,29.50,SW,215,15.0,15.0,77,0.00,OVC,,0.38,134.0,WeatherDisplay:10.37,2013-04-02 10:07:00,
2013-04-02 12:09:00,59.8,52.6,29.50,SW,225,13.8,13.8,77,0.00,OVC,,0.39,130.0,WeatherDisplay:10.37,2013-04-02 10:09:00,
2013-04-02 12:10:00,59.7,52.8,29.49,WSW,240,20.7,20.7,78,0.01,RA,,0.39,135.0,WeatherDisplay:10.37,2013-04-02 10:10:00,
2013-04-02 12:12:00,59.6,52.7,29.50,South,188,20.0,20.0,78,0.01,RA,,0.39,162.0,WeatherDisplay:10.37,2013-04-02 10:12:00,
2013-04-02 12:14:00,59.3,52.4,29.49,South,173,21.9,21.9,78,0.01,RA,,0.39,330.0,WeatherDisplay:10.37,2013-04-02 10:14:00,
2013-04-02 12:15:00,59.3,52.8,29.49,South,186,20.7,20.7,79,0.01,RA,,0.39,332.0,WeatherDisplay:10.37,2013-04-02 10:15:00,
2013-04-02 12:17:00,59.4,53.2,29.49,SSW,199,14.0,14.0,80,0.01,RA,,0.39,374.0,WeatherDisplay:10.37,2013-04-02 10:17:00,
2013-04-02 12:19:00,59.6,53.4,29.49,SSW,213,16.1,16.1,80,0.01,RA,,0.39,580.0,WeatherDisplay:10.37,2013-04-02 10:19:00,
2013-04-02 12:20:00,59.7,53.5,29.49,South,188,16.1,16.1,80,0.01,OVC,,0.39,580.0,WeatherDisplay:10.37,2013-04-02 10:20:00,
2013-04-02 12:22:00,59.9,54.1,29.49,South,189,17.3,17.3,81,0.01,OVC,,0.39,1004.0,WeatherDisplay:10.37,2013-04-02 10:22:00,
2013-04-02 12:24:00,60.1,53.9,29.49,SSW,195,20.7,20.7,80,0.01,OVC,,0.39,1004.0,WeatherDisplay:10.37,2013-04-02 10:24:00,
2013-04-02 12:25:00,60.1,53.9,29.49,SSW,204,13.8,13.8,80,0.01,OVC,,0.39,1004.0,WeatherDisplay:10.37,2013-04-02 10:25:00,
2013-04-02 12:27:00,60.2,53.7,29.49,SW,225,20.7,20.7,79,0.01,OVC,,0.39,454.0,WeatherDisplay:10.37,2013-04-02 10:27:00,
2013-04-02 12:29:00,60.1,53.2,29.49,SSW,195,18.4,18.4,78,0.01,OVC,,0.39,65.0,WeatherDisplay:10.37,2013-04-02 10:29:00,
2013-04-02 12:30:00,60.0,53.1,29.49,SSW,200,22.0,22.0,78,0.01,OVC,,0.39,53.0,WeatherDisplay:10.37,2013-04-02 10:30:00,
2013-04-02 12:33:00,59.7,52.5,29.49,SW,227,24.2,24.2,77,0.01,OVC,,0.39,90.0,WeatherDisplay:10.37,2013-04-02 10:33:00,
2013-04-02 12:34:00,59.1,51.2,29.49,South,174,19.6,19.6,75,0.01,OVC,,0.39,84.0,WeatherDisplay:10.37,2013-04-02 10:34:00,
2013-04-02 12:36:00,58.9,51.0,29.49,SSW,199,17.3,17.3,75,0.02,RA,,0.40,72.0,WeatherDisplay:10.37,2013-04-02 10:36:00,
2013-04-02 12:38:00,58.1,50.2,29.49,SSW,196,20.0,20.0,75,0.03,RA,,0.41,0.0,WeatherDisplay:10.37,2013-04-02 10:38:00,
2013-04-02 12:39:00,58.1,50.2,29.49,SSW,192,19.6,19.6,75,0.03,RA,,0.42,69.0,WeatherDisplay:10.37,2013-04-02 10:39:00,
2013-04-02 12:40:00,57.8,50.3,29.49,South,178,19.6,19.6,76,0.04,RA,,0.42,74.0,WeatherDisplay:10.37,2013-04-02 10:40:00,
2013-04-02 12:42:00,57.6,50.1,29.49,SW,218,11.5,11.5,76,0.05,RA,,0.43,74.0,WeatherDisplay:10.37,2013-04-02 10:42:00,
2013-04-02 12:44:00,57.5,50.3,29.49,SSW,195,10.4,10.4,77,0.05,RA,,0.43,70.0,WeatherDisplay:10.37,2013-04-02 10:44:00,
2013-04-02 12:45:00,57.4,50.6,29.49,South,186,8.0,8.0,78,0.05,RA,,0.43,95.0,WeatherDisplay:10.37,2013-04-02 10:45:00,
2013-04-02 12:47:00,57.3,50.5,29.49,South,185,8.1,8.1,78,0.05,RA,,0.43,142.0,WeatherDisplay:10.37,2013-04-02 10:47:00,
2013-04-02 12:49:00,57.3,50.8,29.49,SSW,196,7.0,7.0,79,0.05,RA,,0.43,142.0,WeatherDisplay:10.37,2013-04-02 10:49:00,
2013-04-02 12:50:00,57.5,51.7,29.49,SSE,167,10.4,10.4,81,0.05,RA,,0.43,142.0,WeatherDisplay:10.37,2013-04-02 10:50:00,
2013-04-02 12:52:00,57.7,51.9,29.48,SSE,160,8.1,8.1,81,0.05,OVC,,0.43,311.0,WeatherDisplay:10.37,2013-04-02 10:52:00,
2013-04-02 12:54:00,57.9,52.4,29.48,South,178,11.0,11.0,82,0.05,OVC,,0.43,322.0,WeatherDisplay:10.37,2013-04-02 10:54:00,
2013-04-02 12:55:00,58.4,53.3,29.48,SSW,198,13.0,13.0,83,0.05,OVC,,0.43,322.0,WeatherDisplay:10.37,2013-04-02 10:55:00,
2013-04-02 12:57:00,58.8,53.3,29.48,SW,214,19.6,19.6,82,0.05,OVC,,0.43,322.0,WeatherDisplay:10.37,2013-04-02 10:57:00,
2013-04-02 12:59:00,58.9,53.1,29.48,South,188,26.5,26.5,81,0.05,OVC,,0.43,322.0,WeatherDisplay:10.37,2013-04-02 10:59:00,
2013-04-02 13:00:00,58.9,53.1,29.48,WSW,246,23.0,23.0,81,0.05,OVC,,0.43,322.0,WeatherDisplay:10.37,2013-04-02 11:00:00,
2013-04-02 13:02:00,59.4,53.6,29.48,SSW,205,21.9,21.9,81,0.05,OVC,,0.43,984.0,WeatherDisplay:10.37,2013-04-02 11:02:00,
2013-04-02 13:04:00,59.9,53.7,29.47,South,188,19.6,19.6,80,0.05,OVC,,0.43,939.0,WeatherDisplay:10.37,2013-04-02 11:04:00,
2013-04-02 13:05:00,59.9,53.4,29.48,SSW,211,25.3,25.3,79,0.05,OVC,,0.43,939.0,WeatherDisplay:10.37,2013-04-02 11:05:00,
2013-04-02 13:06:00,59.9,53.4,29.48,SSW,195,28.8,28.8,79,0.05,OVC,,0.43,939.0,WeatherDisplay:10.37,2013-04-02 11:06:00,
2013-04-02 13:08:00,59.7,52.5,29.48,SSW,198,29.9,29.9,77,0.05,OVC,,0.43,939.0,WeatherDisplay:10.37,2013-04-02 11:08:00,
2013-04-02 13:09:00,59.7,52.5,29.48,SSW,207,24.2,24.2,77,0.05,OVC,,0.43,283.0,WeatherDisplay:10.37,2013-04-02 11:09:00,
2013-04-02 13:10:00,59.7,52.5,29.48,SSW,197,19.6,19.6,77,0.04,OVC,,0.43,287.0,WeatherDisplay:10.37,2013-04-02 11:10:00,
2013-04-02 13:11:00,59.7,52.8,29.48,SW,218,11.5,11.5,78,0.04,OVC,,0.43,287.0,WeatherDisplay:10.37,2013-04-02 11:11:00,
2013-04-02 13:13:00,59.8,52.9,29.48,South,180,17.3,17.3,78,0.04,OVC,,0.43,288.0,WeatherDisplay:10.37,2013-04-02 11:13:00,
2013-04-02 13:14:00,59.7,52.8,29.48,SSW,194,19.6,19.6,78,0.04,OVC,,0.43,237.0,WeatherDisplay:10.37,2013-04-02 11:14:00,
2013-04-02 13:15:00,59.7,52.8,29.48,North,360,18.4,18.4,78,0.04,OVC,,0.43,229.0,WeatherDisplay:10.37,2013-04-02 11:15:00,
2013-04-02 13:16:00,59.6,52.4,29.48,South,182,23.0,23.0,77,0.04,OVC,,0.43,229.0,WeatherDisplay:10.37,2013-04-02 11:16:00,
2013-04-02 13:18:00,59.4,52.2,29.48,SW,223,21.9,21.9,77,0.04,OVC,,0.43,178.0,WeatherDisplay:10.37,2013-04-02 11:18:00,
2013-04-02 13:19:00,59.4,52.5,29.48,SSW,205,18.4,18.4,78,0.04,OVC,,0.43,178.0,WeatherDisplay:10.37,2013-04-02 11:19:00,
2013-04-02 13:20:00,59.4,52.5,29.48,SSW,200,19.6,19.6,78,0.04,OVC,,0.43,167.0,WeatherDisplay:10.37,2013-04-02 11:20:00,
2013-04-02 13:21:00,59.4,52.5,29.48,South,186,19.6,19.6,78,0.04,OVC,,0.43,178.0,WeatherDisplay:10.37,2013-04-02 11:21:00,
2013-04-02 13:23:00,59.3,52.4,29.48,SW,234,16.1,16.1,78,0.04,OVC,,0.43,153.0,WeatherDisplay:10.37,2013-04-02 11:23:00,
2013-04-02 13:24:00,59.3,52.8,29.48,SSW,211,13.8,14.0,79,0.04,OVC,,0.43,248.0,WeatherDisplay:10.37,2013-04-02 11:24:00,
2013-04-02 13:25:00,59.1,51.9,29.48,SSW,213,27.6,27.6,77,0.04,OVC,,0.43,292.0,WeatherDisplay:10.37,2013-04-02 11:25:00,
2013-04-02 13:26:00,59.0,51.8,29.48,SW,234,17.3,17.3,77,0.04,OVC,,0.43,0.0,WeatherDisplay:10.37,2013-04-02 11:26:00,
2013-04-02 13:28:00,59.0,52.1,29.48,WSW,242,17.3,17.3,78,0.04,OVC,,0.43,165.0,WeatherDisplay:10.37,2013-04-02 11:28:00,
2013-04-02 13:29:00,59.0,52.1,29.48,WSW,239,17.3,17.3,78,0.04,OVC,,0.43,120.0,WeatherDisplay:10.37,2013-04-02 11:29:00,
2013-04-02 13:30:00,59.0,51.8,29.48,SW,234,19.6,19.6,77,0.04,OVC,,0.43,0.0,WeatherDisplay:10.37,2013-04-02 11:30:00,
2013-04-02 13:32:00,58.9,51.3,29.48,WSW,237,25.3,25.3,76,0.04,OVC,,0.43,125.0,WeatherDisplay:10.37,2013-04-02 11:32:00,
2013-04-02 13:33:00,58.9,51.7,29.48,WSW,238,13.8,13.8,77,0.04,OVC,,0.43,158.0,WeatherDisplay:10.37,2013-04-02 11:33:00,
2013-04-02 13:34:00,58.9,51.7,29.48,SW,223,13.8,13.8,77,0.04,OVC,,0.43,178.0,WeatherDisplay:10.37,2013-04-02 11:34:00,
2013-04-02 13:35:00,58.8,51.6,29.48,SW,216,13.8,13.8,77,0.03,OVC,,0.43,183.0,WeatherDisplay:10.37,2013-04-02 11:35:00,
2013-04-02 13:38:00,58.6,51.4,29.49,SSW,205,19.6,19.6,77,0.03,OVC,,0.43,213.0,WeatherDisplay:10.37,2013-04-02 11:38:00,
2013-04-02 13:39:00,58.5,51.0,29.49,SW,233,24.2,24.2,76,0.02,OVC,,0.43,213.0,WeatherDisplay:10.37,2013-04-02 11:39:00,
2013-04-02 13:41:00,58.3,50.4,29.49,SW,219,20.7,20.7,75,0.00,OVC,,0.43,459.0,WeatherDisplay:10.37,2013-04-02 11:41:00,
2013-04-02 13:43:00,58.3,50.4,29.48,WSW,243,26.5,26.5,75,0.00,OVC,,0.43,464.0,WeatherDisplay:10.37,2013-04-02 11:43:00,
2013-04-02 13:44:00,58.3,50.4,29.49,SW,234,19.6,19.6,75,0.00,OVC,,0.43,396.0,WeatherDisplay:10.37,2013-04-02 11:44:00,
2013-04-02 13:46:00,58.5,51.0,29.49,SW,236,27.6,27.6,76,0.00,OVC,,0.43,396.0,WeatherDisplay:10.37,2013-04-02 11:46:00,
2013-04-02 13:48:00,58.3,50.8,29.49,SW,219,24.2,24.2,76,0.00,OVC,,0.43,265.0,WeatherDisplay:10.37,2013-04-02 11:48:00,
2013-04-02 13:49:00,58.2,50.7,29.49,SSW,212,28.8,28.8,76,0.00,OVC,,0.43,283.0,WeatherDisplay:10.37,2013-04-02 11:49:00,
2013-04-02 13:51:00,58.2,50.7,29.49,WSW,248,16.1,16.1,76,0.00,OVC,,0.43,329.0,WeatherDisplay:10.37,2013-04-02 11:51:00,
2013-04-02 13:53:00,58.3,51.1,29.49,SW,214,15.0,15.0,77,0.00,OVC,,0.43,388.0,WeatherDisplay:10.37,2013-04-02 11:53:00,
2013-04-02 13:54:00,58.3,51.1,29.49,SSW,200,13.0,13.0,77,0.00,OVC,,0.43,388.0,WeatherDisplay:10.37,2013-04-02 11:54:00,
2013-04-02 13:57:00,58.5,51.3,29.49,SW,227,21.9,21.9,77,0.00,OVC,,0.43,545.0,WeatherDisplay:10.37,2013-04-02 11:57:00,
2013-04-02 13:59:00,58.7,51.5,29.49,WSW,252,24.2,24.2,77,0.00,OVC,,0.43,483.0,WeatherDisplay:10.37,2013-04-02 11:59:00,
2013-04-02 14:00:00,58.9,51.7,29.49,WSW,243,16.1,16.1,77,0.00,OVC,,0.43,483.0,WeatherDisplay:10.37,2013-04-02 12:00:00,
2013-04-02 14:02:00,58.9,51.7,29.49,SW,227,17.3,17.3,77,0.00,OVC,,0.43,483.0,WeatherDisplay:10.37,2013-04-02 12:02:00,
2013-04-02 14:04:00,59.1,51.9,29.49,WSW,240,11.5,11.5,77,0.00,OVC,,0.43,483.0,WeatherDisplay:10.37,2013-04-02 12:04:00,
2013-04-02 14:05:00,59.0,51.8,29.49,WSW,237,15.0,15.0,77,0.00,OVC,,0.43,151.0,WeatherDisplay:10.37,2013-04-02 12:05:00,
2013-04-02 14:07:00,58.9,51.3,29.49,SW,232,20.7,20.7,76,0.00,OVC,,0.43,151.0,WeatherDisplay:10.37,2013-04-02 12:07:00,
2013-04-02 14:09:00,58.2,50.3,29.49,SW,231,17.3,17.3,75,0.00,OVC,,0.43,84.0,WeatherDisplay:10.37,2013-04-02 12:09:00,
2013-04-02 14:10:00,57.9,50.0,29.49,SW,235,20.7,20.7,75,0.00,OVC,,0.43,84.0,WeatherDisplay:10.37,2013-04-02 12:10:00,
2013-04-02 14:12:00,57.8,50.3,29.49,WSW,257,15.0,15.0,76,0.00,OVC,,0.43,183.0,WeatherDisplay:10.37,2013-04-02 12:12:00,
2013-04-02 14:14:00,57.7,50.5,29.49,West,270,13.8,13.8,77,0.00,OVC,,0.43,211.0,WeatherDisplay:10.37,2013-04-02 12:14:00,
2013-04-02 14:15:00,57.7,50.5,29.49,West,267,11.5,11.5,77,0.00,OVC,,0.43,237.0,WeatherDisplay:10.37,2013-04-02 12:15:00,
2013-04-02 14:17:00,57.8,51.0,29.48,WSW,240,16.0,16.0,78,0.00,OVC,,0.43,223.0,WeatherDisplay:10.37,2013-04-02 12:17:00,
2013-04-02 14:19:00,57.7,50.5,29.48,WSW,254,16.1,16.1,77,0.00,OVC,,0.43,258.0,WeatherDisplay:10.37,2013-04-02 12:19:00,
2013-04-02 14:22:00,57.7,50.5,29.48,WSW,243,15.0,15.0,77,0.00,OVC,,0.43,297.0,WeatherDisplay:10.37,2013-04-02 12:22:00,
2013-04-02 14:24:00,57.9,50.7,29.48,WSW,258,15.0,15.0,77,0.00,OVC,,0.43,272.0,WeatherDisplay:10.37,2013-04-02 12:24:00,
2013-04-02 14:27:00,58.2,51.0,29.48,SSW,195,10.4,10.4,77,0.00,OVC,,0.43,260.0,WeatherDisplay:10.37,2013-04-02 12:27:00,
2013-04-02 14:28:00,58.2,51.0,29.48,SSW,194,10.4,10.4,77,0.00,OVC,,0.43,260.0,WeatherDisplay:10.37,2013-04-02 12:28:00,
2013-04-02 14:30:00,58.3,50.8,29.48,WSW,243,15.0,15.0,76,0.00,OVC,,0.43,265.0,WeatherDisplay:10.37,2013-04-02 12:30:00,
2013-04-02 14:32:00,58.5,50.6,29.48,SSW,202,15.0,15.0,75,0.00,OVC,,0.43,323.0,WeatherDisplay:10.37,2013-04-02 12:32:00,
2013-04-02 14:33:00,58.5,50.6,29.48,SSW,207,15.0,15.0,75,0.00,OVC,,0.43,323.0,WeatherDisplay:10.37,2013-04-02 12:33:00,
2013-04-02 14:35:00,58.9,50.6,29.48,SSW,199,20.7,20.7,74,0.00,OVC,,0.43,323.0,WeatherDisplay:10.37,2013-04-02 12:35:00,
2013-04-02 14:38:00,58.9,50.3,29.47,SW,216,16.1,16.1,73,0.00,OVC,,0.43,332.0,WeatherDisplay:10.37,2013-04-02 12:38:00,
2013-04-02 14:40:00,59.4,50.7,29.48,WSW,245,12.0,12.0,73,0.00,OVC,,0.43,323.0,WeatherDisplay:10.37,2013-04-02 12:40:00,
2013-04-02 14:43:00,59.0,50.0,29.48,WSW,257,15.0,15.0,72,0.00,OVC,,0.43,311.0,WeatherDisplay:10.37,2013-04-02 12:43:00,
2013-04-02 14:45:00,58.9,50.3,29.48,SW,234,9.2,9.2,73,0.00,OVC,,0.43,262.0,WeatherDisplay:10.37,2013-04-02 12:45:00,
2013-04-02 14:46:00,58.9,50.3,29.47,SW,221,10.4,10.4,73,0.00,OVC,,0.43,262.0,WeatherDisplay:10.37,2013-04-02 12:46:00,
2013-04-02 14:48:00,58.9,50.6,29.47,SW,228,16.0,16.0,74,0.00,OVC,,0.43,250.0,WeatherDisplay:10.37,2013-04-02 12:48:00,
2013-04-02 14:51:00,58.9,50.3,29.48,SSW,212,16.1,16.1,73,0.00,OVC,,0.43,236.0,WeatherDisplay:10.37,2013-04-02 12:51:00,
2013-04-02 14:52:00,58.9,50.3,29.47,WSW,237,17.3,17.3,73,0.00,OVC,,0.43,360.0,WeatherDisplay:10.37,2013-04-02 12:52:00,
2013-04-02 14:53:00,58.9,50.3,29.47,SW,226,13.8,13.8,73,0.00,OVC,,0.43,360.0,WeatherDisplay:10.37,2013-04-02 12:53:00,
2013-04-02 14:56:00,58.9,50.3,29.47,SSW,211,13.8,13.8,73,0.00,OVC,,0.43,246.0,WeatherDisplay:10.37,2013-04-02 12:56:00,
2013-04-02 14:57:00,58.9,49.9,29.47,SSW,213,19.0,19.0,72,0.00,OVC,,0.43,206.0,WeatherDisplay:10.37,2013-04-02 12:57:00,
2013-04-02 14:58:00,58.9,49.5,29.47,West,263,19.6,19.6,71,0.00,OVC,,0.43,206.0,WeatherDisplay:10.37,2013-04-02 12:58:00,
2013-04-02 15:01:00,58.5,49.5,29.48,WSW,244,18.4,18.4,72,0.00,OVC,,0.43,163.0,WeatherDisplay:10.37,2013-04-02 13:01:00,
2013-04-02 15:02:00,58.3,49.3,29.47,West,263,18.4,18.4,72,0.00,OVC,,0.43,163.0,WeatherDisplay:10.37,2013-04-02 13:02:00,
2013-04-02 15:03:00,58.1,49.1,29.47,WSW,257,16.1,16.1,72,0.00,OVC,,0.43,163.0,WeatherDisplay:10.37,2013-04-02 13:03:00,
2013-04-02 15:07:00,57.8,48.8,29.47,WSW,248,18.4,18.4,72,0.00,OVC,,0.43,229.0,WeatherDisplay:10.37,2013-04-02 13:07:00,
2013-04-02 15:08:00,57.7,48.7,29.47,WSW,257,18.0,18.0,72,0.00,OVC,,0.43,195.0,WeatherDisplay:10.37,2013-04-02 13:08:00,
2013-04-02 15:12:00,57.4,48.4,29.47,WSW,238,16.1,16.1,72,0.00,OVC,,0.43,302.0,WeatherDisplay:10.37,2013-04-02 13:12:00,
2013-04-02 15:13:00,57.5,48.9,29.47,SW,220,13.0,13.0,73,0.00,OVC,,0.43,346.0,WeatherDisplay:10.37,2013-04-02 13:13:00,
2013-04-02 15:14:00,57.5,48.9,29.47,WSW,239,12.7,12.7,73,0.00,OVC,,0.43,323.0,WeatherDisplay:10.37,2013-04-02 13:14:00,
2013-04-02 15:17:00,57.7,49.1,29.47,SW,235,9.2,9.2,73,0.00,OVC,,0.43,172.0,WeatherDisplay:10.37,2013-04-02 13:17:00,
2013-04-02 15:18:00,57.8,49.6,29.47,WSW,244,11.5,11.5,74,0.00,OVC,,0.43,155.0,WeatherDisplay:10.37,2013-04-02 13:18:00,
2013-04-02 15:19:00,57.8,49.2,29.47,SW,231,11.5,11.5,73,0.00,OVC,,0.43,155.0,WeatherDisplay:10.37,2013-04-02 13:19:00,
2013-04-02 15:22:00,57.7,49.1,29.47,WSW,240,13.8,13.8,73,0.00,OVC,,0.43,69.0,WeatherDisplay:10.37,2013-04-02 13:22:00,
2013-04-02 15:23:00,57.7,49.1,29.47,WSW,254,11.0,11.0,73,0.00,OVC,,0.43,69.0,WeatherDisplay:10.37,2013-04-02 13:23:00,
2013-04-02 15:24:00,57.7,49.1,29.47,WSW,248,11.5,11.5,73,0.00,OVC,,0.43,56.0,WeatherDisplay:10.37,2013-04-02 13:24:00,
2013-04-02 15:28:00,57.6,49.0,29.47,SW,234,11.5,11.5,73,0.00,OVC,,0.43,118.0,WeatherDisplay:10.37,2013-04-02 13:28:00,
2013-04-02 15:29:00,57.6,49.4,29.46,WSW,240,11.5,11.5,74,0.00,OVC,,0.43,118.0,WeatherDisplay:10.37,2013-04-02 13:29:00,
2013-04-02 15:33:00,57.4,48.4,29.46,SW,224,12.7,12.7,72,0.00,OVC,,0.43,104.0,WeatherDisplay:10.37,2013-04-02 13:33:00,
2013-04-02 15:34:00,57.4,48.4,29.47,SSW,201,16.1,16.1,72,0.00,OVC,,0.43,102.0,WeatherDisplay:10.37,2013-04-02 13:34:00,
2013-04-02 15:38:00,57.2,47.5,29.46,SW,223,18.4,18.4,70,0.00,OVC,,0.43,63.0,WeatherDisplay:10.37,2013-04-02 13:38:00,
2013-04-02 15:39:00,57.2,47.5,29.46,SSW,194,17.3,17.3,70,0.00,OVC,,0.43,63.0,WeatherDisplay:10.37,2013-04-02 13:39:00,
2013-04-02 15:43:00,57.1,48.2,29.46,SSW,213,17.3,17.3,72,0.01,RA,,0.44,62.0,WeatherDisplay:10.37,2013-04-02 13:43:00,
2013-04-02 15:44:00,57.1,48.5,29.47,SSW,209,17.3,17.3,73,0.01,RA,,0.44,62.0,WeatherDisplay:10.37,2013-04-02 13:44:00,
2013-04-02 15:48:00,56.6,48.8,29.46,SSW,196,11.5,11.5,75,0.02,RA,,0.45,109.0,WeatherDisplay:10.37,2013-04-02 13:48:00,
2013-04-02 15:49:00,56.5,48.7,29.46,SSW,192,11.5,11.5,75,0.02,RA,,0.45,109.0,WeatherDisplay:10.37,2013-04-02 13:49:00,
2013-04-02 15:53:00,56.2,49.1,29.46,SSW,202,11.5,11.5,77,0.02,RA,,0.45,137.0,WeatherDisplay:10.37,2013-04-02 13:53:00,
2013-04-02 15:54:00,56.2,49.1,29.46,SSW,212,11.5,11.5,77,0.02,RA,,0.45,137.0,WeatherDisplay:10.37,2013-04-02 13:54:00,
2013-04-02 15:55:00,56.2,49.1,29.46,SSW,206,11.5,11.5,77,0.02,RA,,0.45,141.0,WeatherDisplay:10.37,2013-04-02 13:55:00,
2013-04-02 15:59:00,56.2,49.4,29.46,South,190,12.7,12.7,78,0.02,OVC,,0.45,162.0,WeatherDisplay:10.37,2013-04-02 13:59:00,
2013-04-02 16:00:00,56.1,49.3,29.46,South,187,15.0,15.0,78,0.02,OVC,,0.45,149.0,WeatherDisplay:10.37,2013-04-02 14:00:00,
2013-04-02 16:04:00,56.1,49.7,29.46,South,191,14.0,14.0,79,0.02,OVC,,0.45,114.0,WeatherDisplay:10.37,2013-04-02 14:04:00,
2013-04-02 16:05:00,56.0,49.6,29.46,South,188,13.8,13.8,79,0.02,OVC,,0.45,67.0,WeatherDisplay:10.37,2013-04-02 14:05:00,
2013-04-02 16:09:00,56.0,49.6,29.45,South,177,10.4,10.4,79,0.02,OVC,,0.45,54.0,WeatherDisplay:10.37,2013-04-02 14:09:00,
2013-04-02 16:10:00,56.0,49.6,29.45,SSW,202,9.0,9.0,79,0.02,OVC,,0.45,62.0,WeatherDisplay:10.37,2013-04-02 14:10:00,
2013-04-02 16:14:00,55.9,49.8,29.45,SSE,167,12.7,12.7,80,0.03,RA,,0.46,156.0,WeatherDisplay:10.37,2013-04-02 14:14:00,
2013-04-02 16:15:00,55.9,49.8,29.45,SW,227,12.7,12.7,80,0.03,RA,,0.46,156.0,WeatherDisplay:10.37,2013-04-02 14:15:00,
2013-04-02 16:19:00,55.9,49.8,29.45,South,180,11.5,11.5,80,0.03,RA,,0.46,202.0,WeatherDisplay:10.37,2013-04-02 14:19:00,
2013-04-02 16:20:00,55.9,49.8,29.45,SSW,201,11.5,11.5,80,0.03,RA,,0.46,200.0,WeatherDisplay:10.37,2013-04-02 14:20:00,
2013-04-02 16:21:00,55.9,50.2,29.45,South,174,12.7,12.7,81,0.03,RA,,0.46,174.0,WeatherDisplay:10.37,2013-04-02 14:21:00,
2013-04-02 16:25:00,55.9,50.2,29.45,South,186,10.4,10.4,81,0.03,OVC,,0.46,134.0,WeatherDisplay:10.37,2013-04-02 14:25:00,
2013-04-02 16:26:00,55.9,50.2,29.45,SSW,194,13.8,13.8,81,0.03,OVC,,0.46,160.0,WeatherDisplay:10.37,2013-04-02 14:26:00,
2013-04-02 16:30:00,55.9,50.2,29.45,SSW,198,11.5,11.5,81,0.03,OVC,,0.46,174.0,WeatherDisplay:10.37,2013-04-02 14:30:00,
2013-04-02 16:32:00,55.7,50.0,29.45,SSW,199,12.7,12.7,81,0.03,OVC,,0.46,153.0,WeatherDisplay:10.37,2013-04-02 14:32:00,
2013-04-02 16:35:00,55.4,49.3,29.45,SSW,203,12.7,12.7,80,0.03,OVC,,0.46,153.0,WeatherDisplay:10.37,2013-04-02 14:35:00,
2013-04-02 16:37:00,55.3,48.9,29.45,SSW,204,13.8,13.8,79,0.03,OVC,,0.46,120.0,WeatherDisplay:10.37,2013-04-02 14:37:00,
2013-04-02 16:40:00,55.2,48.8,29.45,SSW,193,15.0,15.0,79,0.03,OVC,,0.46,118.0,WeatherDisplay:10.37,2013-04-02 14:40:00,
2013-04-02 16:41:00,55.1,48.7,29.45,SSW,193,18.4,18.4,79,0.02,OVC,,0.46,118.0,WeatherDisplay:10.37,2013-04-02 14:41:00,
2013-04-02 16:42:00,55.1,48.7,29.45,SSW,193,18.4,18.4,79,0.02,OVC,,0.46,118.0,WeatherDisplay:10.37,2013-04-02 14:42:00,
2013-04-02 16:45:00,54.9,48.5,29.45,SSW,198,16.1,16.1,79,0.02,OVC,,0.46,118.0,WeatherDisplay:10.37,2013-04-02 14:45:00,
2013-04-02 16:47:00,54.9,48.5,29.46,SW,230,16.1,16.1,79,0.01,OVC,,0.46,120.0,WeatherDisplay:10.37,2013-04-02 14:47:00,
2013-04-02 16:50:00,54.7,48.6,29.45,South,173,13.8,13.8,80,0.01,OVC,,0.46,102.0,WeatherDisplay:10.37,2013-04-02 14:50:00,
2013-04-02 16:52:00,54.6,48.6,29.45,SSW,198,13.8,13.8,80,0.01,OVC,,0.46,116.0,WeatherDisplay:10.37,2013-04-02 14:52:00,
2013-04-02 16:55:00,54.2,48.2,29.45,South,182,18.4,18.4,80,0.01,OVC,,0.46,134.0,WeatherDisplay:10.37,2013-04-02 14:55:00,
2013-04-02 16:57:00,54.1,48.1,29.45,South,180,13.8,13.8,80,0.01,OVC,,0.46,134.0,WeatherDisplay:10.37,2013-04-02 14:57:00,
2013-04-02 17:00:00,54.0,48.0,29.45,South,190,12.7,12.7,80,0.01,OVC,,0.46,128.0,WeatherDisplay:10.37,2013-04-02 15:00:00,
2013-04-02 17:02:00,54.0,48.0,29.45,SSE,157,11.5,11.5,80,0.01,OVC,,0.46,67.0,WeatherDisplay:10.37,2013-04-02 15:02:00,
2013-04-02 17:03:00,53.9,47.9,29.45,SSE,165,12.7,12.7,80,0.01,OVC,,0.46,51.0,WeatherDisplay:10.37,2013-04-02 15:03:00,
2013-04-02 17:05:00,53.8,47.8,29.45,SSW,207,17.3,17.3,80,0.01,OVC,,0.46,42.0,WeatherDisplay:10.37,2013-04-02 15:05:00,
2013-04-02 17:08:00,53.7,47.7,29.45,SSW,203,16.1,16.1,80,0.01,OVC,,0.46,62.0,WeatherDisplay:10.37,2013-04-02 15:08:00,
2013-04-02 17:10:00,53.6,47.9,29.45,SSE,155,17.3,17.3,81,0.01,OVC,,0.46,60.0,WeatherDisplay:10.37,2013-04-02 15:10:00,
2013-04-02 17:13:00,53.4,48.0,29.45,SSE,155,18.4,18.4,82,0.01,OVC,,0.46,60.0,WeatherDisplay:10.37,2013-04-02 15:13:00,
2013-04-02 17:14:00,53.3,47.9,29.45,SSW,196,11.5,11.5,82,0.00,OVC,,0.46,60.0,WeatherDisplay:10.37,2013-04-02 15:14:00,
2013-04-02 17:15:00,53.2,48.2,29.45,SSE,161,13.0,13.0,83,0.00,OVC,,0.46,84.0,WeatherDisplay:10.37,2013-04-02 15:15:00,
2013-04-02 17:18:00,53.1,48.1,29.45,SE,141,12.0,12.0,83,0.00,OVC,,0.46,120.0,WeatherDisplay:10.37,2013-04-02 15:18:00,
2013-04-02 17:19:00,53.0,48.0,29.45,SE,146,14.0,14.0,83,0.00,OVC,,0.46,79.0,WeatherDisplay:10.37,2013-04-02 15:19:00,
2013-04-02 17:20:00,53.0,48.3,29.44,SSE,152,10.4,10.4,84,0.00,OVC,,0.46,69.0,WeatherDisplay:10.37,2013-04-02 15:20:00,
2013-04-02 17:23:00,52.9,48.2,29.44,SE,138,12.7,12.7,84,0.00,OVC,,0.46,51.0,WeatherDisplay:10.37,2013-04-02 15:23:00,
2013-04-02 17:24:00,52.9,48.2,29.44,SSE,148,9.2,10.0,84,0.00,OVC,,0.46,51.0,WeatherDisplay:10.37,2013-04-02 15:24:00,
2013-04-02 17:25:00,52.8,48.1,29.44,SSE,165,11.5,11.5,84,0.00,OVC,,0.46,40.0,WeatherDisplay:10.37,2013-04-02 15:25:00,
2013-04-02 17:28:00,52.6,48.2,29.44,SSE,150,11.5,11.5,85,0.00,OVC,,0.46,40.0,WeatherDisplay:10.37,2013-04-02 15:28:00,
2013-04-02 17:29:00,52.6,48.2,29.44,South,169,11.5,11.5,85,0.00,CLR,,0.46,40.0,WeatherDisplay:10.37,2013-04-02 15:29:00,
2013-04-02 17:30:00,52.5,48.1,29.44,South,169,10.4,10.4,85,0.00,CLR,,0.46,40.0,WeatherDisplay:10.37,2013-04-02 15:30:00,
2013-04-02 17:33:00,52.5,48.1,29.44,SSE,155,10.0,10.0,85,0.00,CLR,,0.46,35.0,WeatherDisplay:10.37,2013-04-02 15:33:00,
2013-04-02 17:35:00,52.4,48.0,29.44,SSE,155,12.7,12.7,85,0.00,CLR,,0.46,35.0,WeatherDisplay:10.37,2013-04-02 15:35:00,
2013-04-02 17:38:00,52.3,48.2,29.43,South,180,16.1,16.1,86,0.00,CLR,,0.46,39.0,WeatherDisplay:10.37,2013-04-02 15:38:00,
2013-04-02 17:40:00,52.3,48.2,29.43,SE,133,12.7,12.7,86,0.00,CLR,,0.46,42.0,WeatherDisplay:10.37,2013-04-02 15:40:00,
2013-04-02 17:44:00,52.3,48.2,29.43,South,174,17.3,17.3,86,0.00,CLR,,0.46,26.0,WeatherDisplay:10.37,2013-04-02 15:44:00,
2013-04-02 17:45:00,52.3,48.2,29.43,SE,128,11.5,11.5,86,0.00,CLR,,0.46,21.0,WeatherDisplay:10.37,2013-04-02 15:45:00,
2013-04-02 17:49:00,52.3,48.2,29.43,SE,136,9.2,9.2,86,0.00,CLR,,0.46,37.0,WeatherDisplay:10.37,2013-04-02 15:49:00,
2013-04-02 17:50:00,52.3,48.2,29.43,SSE,152,11.5,11.5,86,0.00,CLR,,0.46,40.0,WeatherDisplay:10.37,2013-04-02 15:50:00,
2013-04-02 17:55:00,52.3,48.5,29.43,SE,127,9.2,9.2,87,0.00,CLR,,0.46,86.0,WeatherDisplay:10.37,2013-04-02 15:55:00,
2013-04-02 17:56:00,52.3,48.5,29.43,East,93,11.5,11.5,87,0.00,CLR,,0.46,114.0,WeatherDisplay:10.37,2013-04-02 15:56:00,
2013-04-02 18:00:00,52.4,48.6,29.43,SE,144,10.4,10.4,87,0.01,RA,,0.47,49.0,WeatherDisplay:10.37,2013-04-02 16:00:00,
2013-04-02 18:01:00,52.5,48.7,29.43,ESE,123,8.1,8.1,87,0.02,RA,,0.48,33.0,WeatherDisplay:10.37,2013-04-02 16:01:00,
2013-04-02 18:02:00,52.5,48.7,29.43,SE,133,8.0,8.0,87,0.02,RA,,0.48,30.0,WeatherDisplay:10.37,2013-04-02 16:02:00,
2013-04-02 18:05:00,52.6,48.8,29.43,SE,138,11.5,11.5,87,0.02,RA,,0.48,63.0,WeatherDisplay:10.37,2013-04-02 16:05:00,
2013-04-02 18:06:00,52.6,48.8,29.43,SE,134,12.7,12.7,87,0.02,RA,,0.48,62.0,WeatherDisplay:10.37,2013-04-02 16:06:00,
2013-04-02 18:07:00,52.7,48.9,29.43,SE,130,11.5,11.5,87,0.02,RA,,0.48,60.0,WeatherDisplay:10.37,2013-04-02 16:07:00,
2013-04-02 18:10:00,52.8,49.0,29.42,SE,134,12.7,12.7,87,0.02,RA,,0.48,60.0,WeatherDisplay:10.37,2013-04-02 16:10:00,
2013-04-02 18:12:00,52.9,49.4,29.43,SE,145,15.0,15.0,88,0.02,,,0.48,60.0,WeatherDisplay:10.37,2013-04-02 16:12:00,
2013-04-02 18:15:00,53.2,49.7,29.42,SE,129,15.0,15.0,88,0.02,CLR,,0.48,60.0,WeatherDisplay:10.37,2013-04-02 16:15:00,
2013-04-02 18:17:00,53.3,49.8,29.42,SSE,150,12.7,12.7,88,0.02,CLR,,0.48,14.0,WeatherDisplay:10.37,2013-04-02 16:17:00,
2013-04-02 18:20:00,53.5,50.0,29.42,SE,142,11.5,11.5,88,0.02,CLR,,0.48,11.0,WeatherDisplay:10.37,2013-04-02 16:20:00,
2013-04-02 18:22:00,53.6,50.1,29.42,SE,132,13.8,13.8,88,0.02,CLR,,0.48,14.0,WeatherDisplay:10.37,2013-04-02 16:22:00,
2013-04-02 18:25:00,53.6,49.8,29.42,SSE,159,15.0,15.0,87,0.02,CLR,,0.48,14.0,WeatherDisplay:10.37,2013-04-02 16:25:00,
2013-04-02 18:27:00,53.5,49.7,29.42,SE,130,10.4,10.4,87,0.02,CLR,,0.48,14.0,WeatherDisplay:10.37,2013-04-02 16:27:00,
2013-04-02 18:28:00,53.5,49.7,29.42,ESE,121,11.5,11.5,87,0.02,CLR,,0.48,12.0,WeatherDisplay:10.37,2013-04-02 16:28:00,
2013-04-02 18:30:00,53.4,49.6,29.42,SE,130,6.9,6.9,87,0.02,CLR,,0.48,11.0,WeatherDisplay:10.37,2013-04-02 16:30:00,
2013-04-02 18:33:00,53.3,49.5,29.42,ESE,115,12.7,12.7,87,0.02,CLR,,0.48,5.0,WeatherDisplay:10.37,2013-04-02 16:33:00,
2013-04-02 18:36:00,53.2,49.4,29.42,ESE,120,9.0,9.0,87,0.02,CLR,,0.48,0.0,WeatherDisplay:10.37,2013-04-02 16:36:00,
2013-04-02 18:39:00,53.0,49.2,29.41,SE,135,15.0,15.0,87,0.02,CLR,,0.48,0.0,WeatherDisplay:10.37,2013-04-02 16:39:00,
2013-04-02 18:40:00,52.9,49.1,29.42,SE,128,10.4,10.4,87,0.02,CLR,,0.48,0.0,WeatherDisplay:10.37,2013-04-02 16:40:00,
2013-04-02 18:41:00,52.9,49.1,29.41,SE,128,8.0,8.0,87,0.02,CLR,,0.48,0.0,WeatherDisplay:10.37,2013-04-02 16:41:00,
2013-04-02 18:45:00,52.8,49.3,29.41,ESE,123,15.0,15.0,88,0.02,CLR,,0.48,0.0,WeatherDisplay:10.37,2013-04-02 16:45:00,
2013-04-02 18:46:00,52.8,49.3,29.41,ESE,119,13.8,13.8,88,0.02,CLR,,0.48,0.0,WeatherDisplay:10.37,2013-04-02 16:46:00,
2013-04-02 18:50:00,52.7,49.2,29.41,SE,126,13.8,13.8,88,0.02,CLR,,0.48,0.0,WeatherDisplay:10.37,2013-04-02 16:50:00,
2013-04-02 18:52:00,52.7,49.2,29.41,ESE,121,11.5,11.5,88,0.02,CLR,,0.48,0.0,WeatherDisplay:10.37,2013-04-02 16:52:00,
2013-04-02 18:55:00,52.7,49.2,29.41,SE,141,12.0,12.0,88,0.02,CLR,,0.48,0.0,WeatherDisplay:10.37,2013-04-02 16:55:00,
2013-04-02 18:57:00,52.7,49.2,29.41,SE,138,9.2,9.2,88,0.01,CLR,,0.48,0.0,WeatherDisplay:10.37,2013-04-02 16:57:00,
2013-04-02 19:00:00,52.7,49.2,29.41,SE,131,11.5,11.5,88,0.01,CLR,,0.48,0.0,WeatherDisplay:10.37,2013-04-02 17:00:00,
2013-04-02 19:02:00,52.8,49.3,29.41,SE,133,11.5,11.5,88,0.00,CLR,,0.50,0.0,WeatherDisplay:10.37,2013-04-02 17:02:00,
2013-04-02 19:05:00,52.8,49.3,29.41,East,99,13.8,13.8,88,0.03,RA,,0.52,0.0,WeatherDisplay:10.37,2013-04-02 17:05:00,
2013-04-02 19:07:00,52.8,49.3,29.41,ESE,119,10.4,10.4,88,0.04,RA,,0.52,0.0,WeatherDisplay:10.37,2013-04-02 17:07:00,
2013-04-02 19:10:00,52.7,49.2,29.41,SE,124,9.2,9.2,88,0.04,RA,,0.52,0.0,WeatherDisplay:10.37,2013-04-02 17:10:00,
2013-04-02 19:12:00,52.6,49.1,29.41,SE,142,10.4,10.4,88,0.05,RA,,0.53,0.0,WeatherDisplay:10.37,2013-04-02 17:12:00,
2013-04-02 19:15:00,52.6,49.1,29.41,East,94,10.4,10.4,88,0.06,RA,,0.54,0.0,WeatherDisplay:10.37,2013-04-02 17:15:00,
2013-04-02 19:18:00,52.6,49.1,29.41,East,100,10.4,10.4,88,0.07,RA,,0.55,0.0,WeatherDisplay:10.37,2013-04-02 17:18:00,
2013-04-02 19:20:00,52.6,49.1,29.41,SE,126,12.7,12.7,88,0.07,RA,,0.55,0.0,WeatherDisplay:10.37,2013-04-02 17:20:00,
2013-04-02 19:21:00,52.6,49.1,29.41,SE,133,12.7,12.7,88,0.07,RA,,0.55,0.0,WeatherDisplay:10.37,2013-04-02 17:21:00,
2013-04-02 19:23:00,52.6,49.1,29.41,SE,124,15.0,15.0,88,0.07,RA,,0.55,0.0,WeatherDisplay:10.37,2013-04-02 17:23:00,
2013-04-02 19:25:00,52.6,49.1,29.41,SE,130,6.9,6.9,88,0.07,RA,,0.55,0.0,WeatherDisplay:10.37,2013-04-02 17:25:00,
2013-04-02 19:26:00,52.6,49.1,29.41,SE,128,7.0,7.0,88,0.07,RA,,0.55,0.0,WeatherDisplay:10.37,2013-04-02 17:26:00,
2013-04-02 19:28:00,52.6,49.1,29.41,SE,130,9.2,9.2,88,0.07,,,0.55,0.0,WeatherDisplay:10.37,2013-04-02 17:28:00,
2013-04-02 19:31:00,52.7,49.5,29.41,SE,132,5.8,5.8,89,0.07,CLR,,0.55,0.0,WeatherDisplay:10.37,2013-04-02 17:31:00,
2013-04-02 19:32:00,52.7,49.5,29.41,SE,132,6.9,6.9,89,0.07,CLR,,0.55,0.0,WeatherDisplay:10.37,2013-04-02 17:32:00,
2013-04-02 19:34:00,52.7,49.5,29.42,SE,134,4.6,4.6,89,0.07,CLR,,0.55,0.0,WeatherDisplay:10.37,2013-04-02 17:34:00,
2013-04-02 19:36:00,52.8,49.6,29.42,SE,134,2.3,2.3,89,0.07,CLR,,0.55,0.0,WeatherDisplay:10.37,2013-04-02 17:36:00,
2013-04-02 19:37:00,52.8,49.6,29.41,SE,144,6.0,6.0,89,0.07,CLR,,0.55,0.0,WeatherDisplay:10.37,2013-04-02 17:37:00,
2013-04-02 19:39:00,52.9,49.7,29.42,SSE,165,8.1,8.1,89,0.07,CLR,,0.55,0.0,WeatherDisplay:10.37,2013-04-02 17:39:00,
2013-04-02 19:41:00,53.0,49.8,29.42,SSW,212,8.1,8.1,89,0.07,CLR,,0.55,0.0,WeatherDisplay:10.37,2013-04-02 17:41:00,
2013-04-02 19:42:00,53.1,49.9,29.42,SSW,212,11.5,11.5,89,0.07,CLR,,0.55,0.0,WeatherDisplay:10.37,2013-04-02 17:42:00,
2013-04-02 19:44:00,53.2,50.0,29.42,West,269,21.9,21.9,89,0.07,CLR,,0.55,0.0,WeatherDisplay:10.37,2013-04-02 17:44:00,
2013-04-02 19:46:00,53.2,50.0,29.42,West,263,16.1,16.1,89,0.07,CLR,,0.55,0.0,WeatherDisplay:10.37,2013-04-02 17:46:00,
2013-04-02 19:48:00,53.2,50.0,29.43,West,262,15.0,15.0,89,0.07,CLR,,0.55,0.0,WeatherDisplay:10.37,2013-04-02 17:48:00,
2013-04-02 19:50:00,53.2,50.0,29.43,West,265,17.3,17.3,89,0.07,CLR,,0.55,0.0,WeatherDisplay:10.37,2013-04-02 17:50:00,
2013-04-02 19:52:00,53.2,50.0,29.43,West,266,15.0,15.0,89,0.07,CLR,,0.55,0.0,WeatherDisplay:10.37,2013-04-02 17:52:00,
2013-04-02 19:53:00,53.2,50.0,29.43,West,273,15.0,15.0,89,0.07,CLR,,0.55,0.0,WeatherDisplay:10.37,2013-04-02 17:53:00,
2013-04-02 19:55:00,53.2,50.0,29.43,West,272,14.0,14.0,89,0.07,CLR,,0.55,0.0,WeatherDisplay:10.37,2013-04-02 17:55:00,
2013-04-02 19:58:00,53.1,49.9,29.44,WSW,257,16.1,16.1,89,0.07,CLR,,0.55,0.0,WeatherDisplay:10.37,2013-04-02 17:58:00,
2013-04-02 20:01:00,52.9,49.7,29.44,West,277,14.0,14.0,89,0.07,CLR,,0.55,0.0,WeatherDisplay:10.37,2013-04-02 18:01:00,
2013-04-02 20:03:00,52.8,49.9,29.44,West,268,15.0,15.0,90,0.05,CLR,,0.55,0.0,WeatherDisplay:10.37,2013-04-02 18:03:00,
2013-04-02 20:04:00,52.7,49.8,29.45,West,260,13.8,13.8,90,0.04,CLR,,0.55,0.0,WeatherDisplay:10.37,2013-04-02 18:04:00,
2013-04-02 20:06:00,52.7,49.5,29.45,West,266,12.7,12.7,89,0.04,CLR,,0.55,0.0,WeatherDisplay:10.37,2013-04-02 18:06:00,
2013-04-02 20:08:00,52.5,49.7,29.45,WNW,283,13.8,13.8,90,0.04,RA,,0.56,0.0,WeatherDisplay:10.37,2013-04-02 18:08:00,
2013-04-02 20:09:00,52.5,49.7,29.45,West,278,12.7,12.7,90,0.04,RA,,0.56,0.0,WeatherDisplay:10.37,2013-04-02 18:09:00,
2013-04-02 20:11:00,52.5,49.7,29.45,West,275,13.8,13.8,90,0.05,RA,,0.57,0.0,WeatherDisplay:10.37,2013-04-02 18:11:00,
2013-04-02 20:14:00,52.2,49.4,29.45,WNW,287,11.5,11.5,90,0.04,RA,,0.57,0.0,WeatherDisplay:10.37,2013-04-02 18:14:00,
2013-04-02 20:16:00,52.2,49.4,29.46,West,272,9.2,9.2,90,0.03,RA,,0.57,0.0,WeatherDisplay:10.37,2013-04-02 18:16:00,
2013-04-02 20:19:00,52.1,49.3,29.46,WNW,290,11.5,11.5,90,0.03,RA,,0.58,0.0,WeatherDisplay:10.37,2013-04-02 18:19:00,
2013-04-02 20:21:00,52.0,49.2,29.46,WNW,292,9.2,9.2,90,0.03,RA,,0.58,0.0,WeatherDisplay:10.37,2013-04-02 18:21:00,
2013-04-02 20:24:00,51.9,49.1,29.46,WNW,289,9.2,9.2,90,0.04,RA,,0.59,0.0,WeatherDisplay:10.37,2013-04-02 18:24:00,
2013-04-02 20:26:00,51.9,49.1,29.46,West,270,12.0,12.0,90,0.04,RA,,0.59,0.0,WeatherDisplay:10.37,2013-04-02 18:26:00,
2013-04-02 20:29:00,52.0,49.2,29.47,West,271,10.4,10.4,90,0.04,RA,,0.59,0.0,WeatherDisplay:10.37,2013-04-02 18:29:00,
2013-04-02 20:31:00,51.9,49.1,29.47,WNW,284,19.6,19.6,90,0.05,RA,,0.61,0.0,WeatherDisplay:10.37,2013-04-02 18:31:00,
2013-04-02 20:34:00,51.8,49.0,29.48,WNW,283,15.0,15.0,90,0.08,RA,,0.63,0.0,WeatherDisplay:10.37,2013-04-02 18:34:00,
2013-04-02 20:36:00,51.6,48.8,29.48,West,277,20.7,20.7,90,0.09,RA,,0.65,0.0,WeatherDisplay:10.37,2013-04-02 18:36:00,
2013-04-02 20:39:00,51.6,48.8,29.48,WNW,285,18.4,18.4,90,0.10,RA,,0.66,0.0,WeatherDisplay:10.37,2013-04-02 18:39:00,
2013-04-02 20:40:00,51.5,48.7,29.48,West,271,17.3,17.3,90,0.11,RA,,0.66,0.0,WeatherDisplay:10.37,2013-04-02 18:40:00,
2013-04-02 20:41:00,51.4,48.6,29.48,West,281,15.0,15.0,90,0.11,RA,,0.66,0.0,WeatherDisplay:10.37,2013-04-02 18:41:00,
2013-04-02 20:44:00,51.4,48.6,29.48,West,259,16.0,16.0,90,0.12,RA,,0.67,0.0,WeatherDisplay:10.37,2013-04-02 18:44:00,
2013-04-02 20:45:00,51.4,48.6,29.48,West,274,16.1,16.1,90,0.12,RA,,0.67,0.0,WeatherDisplay:10.37,2013-04-02 18:45:00,
2013-04-02 20:46:00,51.3,48.5,29.49,West,272,17.3,17.3,90,0.13,RA,,0.68,0.0,WeatherDisplay:10.37,2013-04-02 18:46:00,
2013-04-02 20:49:00,51.3,48.5,29.49,WSW,253,17.0,17.0,90,0.13,RA,,0.68,0.0,WeatherDisplay:10.37,2013-04-02 18:49:00,
2013-04-02 20:50:00,51.3,48.5,29.49,West,266,18.4,18.4,90,0.13,RA,,0.68,0.0,WeatherDisplay:10.37,2013-04-02 18:50:00,
2013-04-02 20:52:00,51.2,48.7,29.49,West,277,17.3,17.3,91,0.13,RA,,0.68,0.0,WeatherDisplay:10.37,2013-04-02 18:52:00,
2013-04-02 20:54:00,51.2,48.7,29.49,West,269,11.5,11.5,91,0.13,RA,,0.68,0.0,WeatherDisplay:10.37,2013-04-02 18:54:00,
2013-04-02 20:56:00,51.2,48.7,29.49,West,270,17.3,17.3,91,0.13,RA,,0.68,0.0,WeatherDisplay:10.37,2013-04-02 18:56:00,
2013-04-02 20:58:00,51.2,48.7,29.50,West,265,15.0,15.0,91,0.13,,,0.68,0.0,WeatherDisplay:10.37,2013-04-02 18:58:00,
2013-04-02 20:59:00,51.2,48.7,29.49,West,276,12.0,12.0,91,0.13,CLR,,0.68,0.0,WeatherDisplay:10.37,2013-04-02 18:59:00,
2013-04-02 21:02:00,51.2,48.7,29.50,WSW,253,12.7,12.7,91,0.13,CLR,,0.68,0.0,WeatherDisplay:10.37,2013-04-02 19:02:00,
2013-04-02 21:03:00,51.2,48.7,29.50,WNW,286,13.0,13.0,91,0.13,CLR,,0.68,0.0,WeatherDisplay:10.37,2013-04-02 19:03:00,
2013-04-02 21:05:00,51.2,48.7,29.50,WNW,286,13.0,13.0,91,0.13,CLR,,0.68,0.0,WeatherDisplay:10.37,2013-04-02 19:05:00,
2013-04-02 21:07:00,51.1,48.6,29.50,West,275,12.7,12.7,91,0.13,CLR,,0.68,0.0,WeatherDisplay:10.37,2013-04-02 19:07:00,
2013-04-02 21:08:00,51.1,48.6,29.50,West,267,11.5,11.5,91,0.12,CLR,,0.68,0.0,WeatherDisplay:10.37,2013-04-02 19:08:00,
2013-04-02 21:10:00,51.1,48.6,29.50,WSW,257,16.1,16.1,91,0.13,RA,,0.69,0.0,WeatherDisplay:10.37,2013-04-02 19:10:00,
2013-04-02 21:12:00,51.1,48.6,29.50,WSW,254,16.0,16.0,91,0.12,RA,,0.69,0.0,WeatherDisplay:10.37,2013-04-02 19:12:00,
2013-04-02 21:13:00,51.1,48.6,29.50,West,277,16.1,16.1,91,0.12,RA,,0.69,0.0,WeatherDisplay:10.37,2013-04-02 19:13:00,
2013-04-02 21:15:00,51.2,48.7,29.50,WSW,258,11.5,11.5,91,0.12,RA,,0.69,0.0,WeatherDisplay:10.37,2013-04-02 19:15:00,
2013-04-02 21:17:00,51.2,48.7,29.50,West,281,11.5,11.5,91,0.11,RA,,0.69,0.0,WeatherDisplay:10.37,2013-04-02 19:17:00,
2013-04-02 21:18:00,51.2,48.7,29.50,WSW,248,11.5,11.5,91,0.11,RA,,0.69,0.0,WeatherDisplay:10.37,2013-04-02 19:18:00,
2013-04-02 21:20:00,51.2,48.7,29.50,WNW,286,11.5,11.5,91,0.11,,,0.69,0.0,WeatherDisplay:10.37,2013-04-02 19:20:00,
2013-04-02 21:22:00,51.2,48.7,29.51,West,270,11.5,11.5,91,0.10,CLR,,0.69,0.0,WeatherDisplay:10.37,2013-04-02 19:22:00,
2013-04-02 21:23:00,51.2,48.7,29.51,West,261,13.0,13.0,91,0.10,CLR,,0.69,0.0,WeatherDisplay:10.37,2013-04-02 19:23:00,
2013-04-02 21:25:00,51.2,48.7,29.51,West,269,13.8,13.8,91,0.10,CLR,,0.69,0.0,WeatherDisplay:10.37,2013-04-02 19:25:00,
2013-04-02 21:28:00,51.1,48.6,29.51,West,269,15.0,15.0,91,0.10,CLR,,0.69,0.0,WeatherDisplay:10.37,2013-04-02 19:28:00,
2013-04-02 21:29:00,51.2,48.7,29.51,West,267,13.8,13.8,91,0.10,CLR,,0.69,0.0,WeatherDisplay:10.37,2013-04-02 19:29:00,
2013-04-02 21:30:00,51.1,48.6,29.51,WNW,282,11.5,11.5,91,0.09,CLR,,0.70,0.0,WeatherDisplay:10.37,2013-04-02 19:30:00,
2013-04-02 21:33:00,51.2,48.7,29.51,West,275,10.0,10.0,91,0.09,RA,,0.70,0.0,WeatherDisplay:10.37,2013-04-02 19:33:00,
2013-04-02 21:34:00,51.1,48.6,29.51,WNW,288,10.4,10.4,91,0.07,RA,,0.70,0.0,WeatherDisplay:10.37,2013-04-02 19:34:00,
2013-04-02 21:35:00,51.1,48.6,29.51,WNW,288,10.4,10.4,91,0.06,RA,,0.70,0.0,WeatherDisplay:10.37,2013-04-02 19:35:00,
2013-04-02 21:38:00,51.2,48.7,29.51,West,271,13.0,13.0,91,0.05,RA,,0.70,0.0,WeatherDisplay:10.37,2013-04-02 19:38:00,
2013-04-02 21:39:00,51.2,48.7,29.51,West,271,12.7,12.7,91,0.05,RA,,0.70,0.0,WeatherDisplay:10.37,2013-04-02 19:39:00,
2013-04-02 21:40:00,51.2,48.7,29.51,West,263,11.5,11.5,91,0.04,RA,,0.70,0.0,WeatherDisplay:10.37,2013-04-02 19:40:00,
2013-04-02 21:44:00,51.3,48.8,29.51,West,276,12.7,12.7,91,0.03,CLR,,0.70,0.0,WeatherDisplay:10.37,2013-04-02 19:44:00,
2013-04-02 21:45:00,51.2,48.7,29.51,West,280,10.4,10.4,91,0.03,CLR,,0.70,0.0,WeatherDisplay:10.37,2013-04-02 19:45:00,
2013-04-02 21:49:00,51.2,48.7,29.51,West,280,10.4,10.4,91,0.02,CLR,,0.70,0.0,WeatherDisplay:10.37,2013-04-02 19:49:00,
2013-04-02 21:50:00,51.2,48.7,29.51,West,277,11.5,11.5,91,0.02,CLR,,0.70,0.0,WeatherDisplay:10.37,2013-04-02 19:50:00,
2013-04-02 21:54:00,51.2,48.7,29.51,West,263,13.8,13.8,91,0.02,CLR,,0.70,0.0,WeatherDisplay:10.37,2013-04-02 19:54:00,
2013-04-02 21:55:00,51.2,48.7,29.51,WNW,284,12.7,12.7,91,0.02,CLR,,0.70,0.0,WeatherDisplay:10.37,2013-04-02 19:55:00,
2013-04-02 21:57:00,51.2,48.7,29.51,West,271,13.8,13.8,91,0.02,CLR,,0.70,0.0,WeatherDisplay:10.37,2013-04-02 19:57:00,
2013-04-02 21:59:00,51.2,48.7,29.51,WNW,291,12.7,12.7,91,0.02,CLR,,0.70,0.0,WeatherDisplay:10.37,2013-04-02 19:59:00,
2013-04-02 22:00:00,51.1,48.6,29.51,WNW,284,12.7,12.7,91,0.02,CLR,,0.70,0.0,WeatherDisplay:10.37,2013-04-02 20:00:00,
2013-04-02 22:02:00,51.1,48.6,29.51,West,272,10.4,10.4,91,0.02,CLR,,0.70,0.0,WeatherDisplay:10.37,2013-04-02 20:02:00,
2013-04-02 22:04:00,51.1,48.6,29.51,WNW,294,13.8,13.8,91,0.02,CLR,,0.70,0.0,WeatherDisplay:10.37,2013-04-02 20:04:00,
2013-04-02 22:05:00,51.1,48.6,29.52,WNW,284,13.8,13.8,91,0.02,CLR,,0.70,0.0,WeatherDisplay:10.37,2013-04-02 20:05:00,
2013-04-02 22:07:00,51.0,48.5,29.52,West,281,11.5,11.5,91,0.02,CLR,,0.70,0.0,WeatherDisplay:10.37,2013-04-02 20:07:00,
2013-04-02 22:10:00,51.0,48.5,29.52,WNW,292,11.5,11.5,91,0.01,CLR,,0.70,0.0,WeatherDisplay:10.37,2013-04-02 20:10:00,
2013-04-02 22:12:00,51.0,48.5,29.52,WNW,285,8.1,8.1,91,0.01,CLR,,0.70,0.0,WeatherDisplay:10.37,2013-04-02 20:12:00,
2013-04-02 22:15:00,50.9,48.4,29.52,WNW,291,10.4,10.4,91,0.01,CLR,,0.70,0.0,WeatherDisplay:10.37,2013-04-02 20:15:00,
2013-04-02 22:16:00,50.9,48.4,29.52,West,278,10.4,10.4,91,0.01,CLR,,0.70,0.0,WeatherDisplay:10.37,2013-04-02 20:16:00,
2013-04-02 22:18:00,50.9,48.4,29.52,WNW,282,11.5,11.5,91,0.01,CLR,,0.70,0.0,WeatherDisplay:10.37,2013-04-02 20:18:00,
2013-04-02 22:21:00,50.9,48.4,29.52,WNW,294,11.5,11.5,91,0.01,CLR,,0.70,0.0,WeatherDisplay:10.37,2013-04-02 20:21:00,
2013-04-02 22:23:00,50.9,48.4,29.52,WNW,290,8.1,8.1,91,0.01,CLR,,0.70,0.0,WeatherDisplay:10.37,2013-04-02 20:23:00,
2013-04-02 22:26:00,50.9,48.4,29.52,West,275,11.5,11.5,91,0.01,CLR,,0.70,0.0,WeatherDisplay:10.37,2013-04-02 20:26:00,
2013-04-02 22:28:00,50.9,48.4,29.52,WNW,300,11.5,11.5,91,0.01,CLR,,0.70,0.0,WeatherDisplay:10.37,2013-04-02 20:28:00,
2013-04-02 22:31:00,50.9,48.4,29.52,WNW,291,11.5,11.5,91,0.00,CLR,,0.70,0.0,WeatherDisplay:10.37,2013-04-02 20:31:00,
2013-04-02 22:32:00,50.9,48.4,29.52,WNW,283,13.8,13.8,91,0.00,CLR,,0.70,0.0,WeatherDisplay:10.37,2013-04-02 20:32:00,
2013-04-02 22:33:00,50.9,48.4,29.52,WNW,302,11.5,11.5,91,0.00,CLR,,0.70,0.0,WeatherDisplay:10.37,2013-04-02 20:33:00,
2013-04-02 22:36:00,50.9,48.4,29.52,WNW,302,10.4,10.4,91,0.00,CLR,,0.70,0.0,WeatherDisplay:10.37,2013-04-02 20:36:00,
2013-04-02 22:37:00,50.9,48.4,29.52,WNW,298,9.2,9.2,91,0.00,CLR,,0.70,0.0,WeatherDisplay:10.37,2013-04-02 20:37:00,
2013-04-02 22:38:00,50.9,48.4,29.52,NW,304,8.1,8.1,91,0.00,CLR,,0.70,0.0,WeatherDisplay:10.37,2013-04-02 20:38:00,
2013-04-02 22:41:00,50.9,48.4,29.52,NW,306,10.4,10.4,91,0.00,CLR,,0.70,0.0,WeatherDisplay:10.37,2013-04-02 20:41:00,
2013-04-02 22:42:00,50.9,48.4,29.52,WNW,303,10.4,10.4,91,0.00,CLR,,0.70,0.0,WeatherDisplay:10.37,2013-04-02 20:42:00,
2013-04-02 22:43:00,50.9,48.4,29.52,WNW,300,8.1,8.1,91,0.00,CLR,,0.70,0.0,WeatherDisplay:10.37,2013-04-02 20:43:00,
2013-04-02 22:47:00,50.9,48.4,29.52,WNW,302,8.1,8.1,91,0.00,CLR,,0.70,0.0,WeatherDisplay:10.37,2013-04-02 20:47:00,
2013-04-02 22:48:00,50.9,48.4,29.52,NW,314,6.0,6.0,91,0.00,CLR,,0.70,0.0,WeatherDisplay:10.37,2013-04-02 20:48:00,
2013-04-02 22:52:00,50.9,48.4,29.52,NW,317,6.9,6.9,91,0.00,CLR,,0.70,0.0,WeatherDisplay:10.37,2013-04-02 20:52:00,
2013-04-02 22:54:00,50.9,48.4,29.53,NW,314,8.1,8.1,91,0.00,CLR,,0.70,0.0,WeatherDisplay:10.37,2013-04-02 20:54:00,
2013-04-02 22:57:00,50.9,48.4,29.53,NW,321,9.2,9.2,91,0.00,CLR,,0.70,0.0,WeatherDisplay:10.37,2013-04-02 20:57:00,
2013-04-02 22:59:00,50.9,48.4,29.53,WNW,293,8.1,8.1,91,0.00,CLR,,0.70,0.0,WeatherDisplay:10.37,2013-04-02 20:59:00,
2013-04-02 23:02:00,50.8,48.3,29.53,WNW,294,5.8,5.8,91,0.00,CLR,,0.70,0.0,WeatherDisplay:10.37,2013-04-02 21:02:00,
2013-04-02 23:04:00,50.8,48.3,29.53,WNW,294,4.6,4.6,91,0.00,CLR,,0.70,0.0,WeatherDisplay:10.37,2013-04-02 21:04:00,
2013-04-02 23:05:00,50.8,48.3,29.53,WNW,294,7.0,7.0,91,0.00,CLR,,0.70,0.0,WeatherDisplay:10.37,2013-04-02 21:05:00,
2013-04-02 23:08:00,50.8,48.3,29.53,WNW,301,9.2,9.2,91,0.00,CLR,,0.70,0.0,WeatherDisplay:10.37,2013-04-02 21:08:00,
2013-04-02 23:09:00,50.8,48.3,29.53,WNW,301,8.1,8.1,91,0.00,CLR,,0.70,0.0,WeatherDisplay:10.37,2013-04-02 21:09:00,
2013-04-02 23:10:00,50.8,48.3,29.53,WNW,301,7.0,7.0,91,0.00,CLR,,0.70,0.0,WeatherDisplay:10.37,2013-04-02 21:10:00,
2013-04-02 23:13:00,50.8,48.3,29.53,WNW,301,10.4,10.4,91,0.00,CLR,,0.70,0.0,WeatherDisplay:10.37,2013-04-02 21:13:00,
2013-04-02 23:14:00,50.8,48.3,29.53,WNW,298,11.5,11.5,91,0.00,CLR,,0.70,0.0,WeatherDisplay:10.37,2013-04-02 21:14:00,
2013-04-02 23:15:00,50.8,48.3,29.53,WNW,298,11.5,11.5,91,0.00,CLR,,0.70,0.0,WeatherDisplay:10.37,2013-04-02 21:15:00,
2013-04-02 23:18:00,50.7,48.2,29.53,West,281,9.0,9.0,91,0.00,CLR,,0.70,0.0,WeatherDisplay:10.37,2013-04-02 21:18:00,
2013-04-02 23:19:00,50.8,48.3,29.53,WNW,282,10.4,10.4,91,0.00,CLR,,0.70,0.0,WeatherDisplay:10.37,2013-04-02 21:19:00,
2013-04-02 23:20:00,50.8,48.3,29.53,WNW,288,10.4,10.4,91,0.00,CLR,,0.70,0.0,WeatherDisplay:10.37,2013-04-02 21:20:00,
2013-04-02 23:23:00,50.8,48.3,29.53,WNW,303,9.2,9.2,91,0.00,CLR,,0.70,0.0,WeatherDisplay:10.37,2013-04-02 21:23:00,
2013-04-02 23:24:00,50.8,48.3,29.54,WNW,294,10.4,10.4,91,0.00,CLR,,0.70,0.0,WeatherDisplay:10.37,2013-04-02 21:24:00,
2013-04-02 23:25:00,50.7,48.2,29.54,WNW,292,10.4,10.4,91,0.00,CLR,,0.70,0.0,WeatherDisplay:10.37,2013-04-02 21:25:00,
2013-04-02 23:28:00,50.8,48.3,29.54,WNW,284,11.5,11.5,91,0.00,CLR,,0.70,0.0,WeatherDisplay:10.37,2013-04-02 21:28:00,
2013-04-02 23:29:00,50.7,48.2,29.54,NW,307,9.2,9.2,91,0.00,CLR,,0.70,0.0,WeatherDisplay:10.37,2013-04-02 21:29:00,
2013-04-02 23:30:00,50.7,48.2,29.54,NW,306,9.2,9.2,91,0.00,CLR,,0.70,0.0,WeatherDisplay:10.37,2013-04-02 21:30:00,
2013-04-02 23:33:00,50.8,48.3,29.54,WNW,300,9.2,9.2,91,0.00,CLR,,0.70,0.0,WeatherDisplay:10.37,2013-04-02 21:33:00,
2013-04-02 23:35:00,50.8,48.3,29.54,WNW,296,9.2,9.2,91,0.00,CLR,,0.70,0.0,WeatherDisplay:10.37,2013-04-02 21:35:00,
2013-04-02 23:39:00,50.8,48.3,29.55,West,276,9.2,9.2,91,0.00,CLR,,0.70,0.0,WeatherDisplay:10.37,2013-04-02 21:39:00,
2013-04-02 23:40:00,50.8,48.3,29.55,West,278,10.4,10.4,91,0.00,CLR,,0.70,0.0,WeatherDisplay:10.37,2013-04-02 21:40:00,
2013-04-02 23:44:00,50.8,48.0,29.55,West,273,6.9,6.9,90,0.00,CLR,,0.70,0.0,WeatherDisplay:10.37,2013-04-02 21:44:00,
2013-04-02 23:45:00,50.8,48.0,29.55,West,273,8.1,8.1,90,0.00,CLR,,0.70,0.0,WeatherDisplay:10.37,2013-04-02 21:45:00,
2013-04-02 23:46:00,50.8,48.0,29.55,West,277,7.0,7.0,90,0.00,CLR,,0.70,0.0,WeatherDisplay:10.37,2013-04-02 21:46:00,
2013-04-02 23:50:00,50.8,48.0,29.55,WNW,282,5.0,5.0,90,0.00,CLR,,0.70,0.0,WeatherDisplay:10.37,2013-04-02 21:50:00,
2013-04-02 23:51:00,50.8,48.0,29.55,WNW,284,6.9,6.9,90,0.00,CLR,,0.70,0.0,WeatherDisplay:10.37,2013-04-02 21:51:00,
2013-04-02 23:55:00,50.8,48.0,29.55,WNW,285,4.0,4.0,90,0.00,CLR,,0.70,0.0,WeatherDisplay:10.37,2013-04-02 21:55:00,
2013-04-02 23:56:00,50.8,48.0,29.55,WNW,285,5.8,5.8,90,0.00,CLR,,0.70,0.0,WeatherDisplay:10.37,2013-04-02 21:56:00,